Observation data for Amarillo 9 North Northeast on 02/13/2018      Previous  Date  Next       Current Mesonet Observations  Soil Data  Daily Summary Page  Observations in Plain Language
KAM2 130600Z 09001KT M03/M12 A3026 RMK A01 T10291116  RH  051%=      5-min Rain = 0
KAM2 130601Z 09001KT M03/M12 A3026 RMK A01 T10331117  RH  052%=      5-min Rain = 0
KAM2 130602Z 10002KT M04/M12 A3026 RMK A01 T10361119  RH  053%=      5-min Rain = 0
KAM2 130603Z 10002KT M04/M12 A3026 RMK A01 T10371119  RH  053%=      5-min Rain = 0
KAM2 130604Z 10002KT M04/M12 A3026 RMK A01 T10381118  RH  054%=      5-min Rain = 0
KAM2 130605Z 11003KT M04/M12 A3026 RMK A01 T10381117  RH  054%=      5-min Rain = 0
KAM2 130606Z 12004KT M04/M12 A3026 RMK A01 T10401118  RH  055%=      5-min Rain = 0
KAM2 130607Z 12004KT M04/M12 A3026 RMK A01 T10391117  RH  055%=      5-min Rain = 0
KAM2 130608Z 13004KT M04/M12 A3026 RMK A01 T10381117  RH  054%=      5-min Rain = 0
KAM2 130609Z 14004KT M04/M12 A3026 RMK A01 T10381117  RH  054%=      5-min Rain = 0
KAM2 130610Z 14005KT M04/M12 A3026 RMK A01 T10381117  RH  054%=      5-min Rain = 0
KAM2 130611Z 13006KT M04/M12 A3025 RMK A01 T10381116  RH  055%=      5-min Rain = 0
KAM2 130612Z 13008KT M04/M11 A3025 RMK A01 T10381114  RH  055%=      5-min Rain = 0
KAM2 130613Z 14007KT M04/M11 A3025 RMK A01 T10351113  RH  055%=      5-min Rain = 0
KAM2 130614Z 14007KT M03/M11 A3025 RMK A01 T10331112  RH  054%=      5-min Rain = 0
KAM2 130615Z 14007KT M03/M11 A3025 RMK A01 T10311112  RH  054%=      5-min Rain = 0
KAM2 130616Z 14006KT M03/M11 A3025 RMK A01 T10291112  RH  053%=      5-min Rain = 0
KAM2 130617Z 14008KT M03/M11 A3025 RMK A01 T10281113  RH  052%=      5-min Rain = 0
KAM2 130618Z 14008KT M03/M11 A3025 RMK A01 T10281114  RH  052%=      5-min Rain = 0
KAM2 130619Z 14007KT M03/M11 A3025 RMK A01 T10281114  RH  051%=      5-min Rain = 0
KAM2 130620Z 15007KT M03/M12 A3025 RMK A01 T10281115  RH  051%=      5-min Rain = 0
KAM2 130621Z 15006KT M03/M12 A3025 RMK A01 T10291115  RH  052%=      5-min Rain = 0
KAM2 130622Z 16004KT M03/M12 A3025 RMK A01 T10301115  RH  052%=      5-min Rain = 0
KAM2 130623Z 16002KT M03/M12 A3025 RMK A01 T10321116  RH  052%=      5-min Rain = 0
KAM2 130624Z 16003KT M03/M12 A3025 RMK A01 T10331117  RH  052%=      5-min Rain = 0
KAM2 130625Z 16003KT M03/M12 A3025 RMK A01 T10341117  RH  053%=      5-min Rain = 0
KAM2 130626Z 15003KT M04/M12 A3026 RMK A01 T10351118  RH  053%=      5-min Rain = 0
KAM2 130627Z 15002KT M04/M12 A3026 RMK A01 T10351118  RH  053%=      5-min Rain = 0
KAM2 130628Z 14002KT M04/M12 A3026 RMK A01 T10351118  RH  053%=      5-min Rain = 0
KAM2 130629Z 13001KT M04/M12 A3026 RMK A01 T10351118  RH  053%=      5-min Rain = 0
KAM2 130630Z 12001KT M04/M12 A3026 RMK A01 T10351117  RH  053%=      5-min Rain = 0
KAM2 130631Z 11001KT M04/M12 A3026 RMK A01 T10351117  RH  053%=      5-min Rain = 0
KAM2 130632Z 11001KT M04/M12 A3026 RMK A01 T10351116  RH  054%=      5-min Rain = 0
KAM2 130633Z 12001KT M04/M12 A3026 RMK A01 T10361115  RH  054%=      5-min Rain = 0
KAM2 130634Z 12002KT M04/M12 A3026 RMK A01 T10371116  RH  054%=      5-min Rain = 0
KAM2 130635Z 12003KT M04/M12 A3026 RMK A01 T10371115  RH  055%=      5-min Rain = 0
KAM2 130636Z 13003KT M04/M12 A3026 RMK A01 T10351115  RH  054%=      5-min Rain = 0
KAM2 130637Z 14004KT M04/M12 A3026 RMK A01 T10351115  RH  054%=      5-min Rain = 0
KAM2 130638Z 14004KT M04/M12 A3026 RMK A01 T10361116  RH  054%=      5-min Rain = 0
KAM2 130639Z 14005KT M04/M12 A3026 RMK A01 T10371116  RH  054%=      5-min Rain = 0
KAM2 130640Z 14006KT M04/M12 A3026 RMK A01 T10381115  RH  055%=      5-min Rain = 0
KAM2 130641Z 15006KT M04/M12 A3026 RMK A01 T10391116  RH  055%=      5-min Rain = 0
KAM2 130642Z 15005KT M04/M12 A3025 RMK A01 T10391116  RH  055%=      5-min Rain = 0
KAM2 130643Z 15007KT M04/M11 A3025 RMK A01 T10381114  RH  056%=      5-min Rain = 0
KAM2 130644Z 15007KT M04/M11 A3025 RMK A01 T10371112  RH  056%=      5-min Rain = 0
KAM2 130645Z 15007KT M04/M11 A3026 RMK A01 T10371112  RH  056%=      5-min Rain = 0
KAM2 130646Z 15007KT M04/M11 A3026 RMK A01 T10371113  RH  056%=      5-min Rain = 0
KAM2 130647Z 15007KT M04/M11 A3026 RMK A01 T10371114  RH  055%=      5-min Rain = 0
KAM2 130648Z 15007KT M04/M12 A3025 RMK A01 T10371115  RH  055%=      5-min Rain = 0
KAM2 130649Z 15006KT M04/M12 A3026 RMK A01 T10381115  RH  055%=      5-min Rain = 0
KAM2 130650Z 15006KT M04/M12 A3026 RMK A01 T10381115  RH  055%=      5-min Rain = 0
KAM2 130651Z 15006KT M04/M11 A3026 RMK A01 T10381114  RH  056%=      5-min Rain = 0
KAM2 130652Z 15006KT M04/M11 A3026 RMK A01 T10381114  RH  056%=      5-min Rain = 0
KAM2 130653Z 15006KT M04/M11 A3026 RMK A01 T10381114  RH  056%=      5-min Rain = 0
KAM2 130654Z 14005KT M04/M11 A3026 RMK A01 T10371114  RH  056%=      5-min Rain = 0
KAM2 130655Z 14005KT M04/M11 A3026 RMK A01 T10381114  RH  055%=      5-min Rain = 0
KAM2 130656Z 14006KT M04/M12 A3026 RMK A01 T10371115  RH  055%=      5-min Rain = 0
KAM2 130657Z 13005KT M04/M12 A3026 RMK A01 T10371116  RH  054%=      5-min Rain = 0
KAM2 130658Z 12003KT M04/M12 A3026 RMK A01 T10361116  RH  054%=      5-min Rain = 0
KAM2 130659Z 11003KT M04/M11 A3026 RMK A01 T10351114  RH  054%=      5-min Rain = 0
KAM2 130700Z 12003KT M03/M11 A3026 RMK A01 T10341113  RH  054%=      5-min Rain = 0
KAM2 130701Z 12002KT M03/M11 A3026 RMK A01 T10341113  RH  054%=      5-min Rain = 0
KAM2 130702Z 11002KT M03/M11 A3027 RMK A01 T10341113  RH  054%=      5-min Rain = 0
KAM2 130703Z 14000KT M04/M12 A3027 RMK A01 T10351116  RH  054%=      5-min Rain = 0
KAM2 130704Z 00000KT M04/M12 A3027 RMK A01 T10411121  RH  054%=      5-min Rain = 0
KAM2 130705Z 00000KT M05/M12 A3027 RMK A01 T10471124  RH  055%=      5-min Rain = 0
KAM2 130706Z 12000KT M05/M12 A3027 RMK A01 T10521124  RH  057%=      5-min Rain = 0
KAM2 130707Z 09000KT M06/M12 A3027 RMK A01 T10551124  RH  058%=      5-min Rain = 0
KAM2 130708Z 09000KT M06/M12 A3027 RMK A01 T10571123  RH  060%=      5-min Rain = 0
KAM2 130709Z 06000KT M06/M12 A3027 RMK A01 T10581122  RH  061%=      5-min Rain = 0
KAM2 130710Z 05001KT M06/M12 A3027 RMK A01 T10581120  RH  062%=      5-min Rain = 0
KAM2 130711Z 08001KT M06/M12 A3027 RMK A01 T10591120  RH  062%=      5-min Rain = 0
KAM2 130712Z 10001KT M06/M12 A3027 RMK A01 T10591120  RH  062%=      5-min Rain = 0
KAM2 130713Z 11001KT M06/M12 A3027 RMK A01 T10581119  RH  062%=      5-min Rain = 0
KAM2 130714Z 11001KT M06/M12 A3027 RMK A01 T10571119  RH  062%=      5-min Rain = 0
KAM2 130715Z 09001KT M06/M12 A3026 RMK A01 T10571119  RH  062%=      5-min Rain = 0
KAM2 130716Z 11000KT M06/M12 A3026 RMK A01 T10571119  RH  061%=      5-min Rain = 0
KAM2 130717Z 10000KT M06/M12 A3026 RMK A01 T10571119  RH  061%=      5-min Rain = 0
KAM2 130718Z 09001KT M06/M12 A3026 RMK A01 T10581122  RH  061%=      5-min Rain = 0
KAM2 130719Z 09001KT M06/M12 A3026 RMK A01 T10591123  RH  061%=      5-min Rain = 0
KAM2 130720Z 08001KT M06/M12 A3026 RMK A01 T10601122  RH  061%=      5-min Rain = 0
KAM2 130721Z 08001KT M06/M12 A3026 RMK A01 T10601122  RH  062%=      5-min Rain = 0
KAM2 130722Z 09001KT M06/M12 A3026 RMK A01 T10601121  RH  062%=      5-min Rain = 0
KAM2 130723Z 10002KT M06/M12 A3026 RMK A01 T10591121  RH  062%=      5-min Rain = 0
KAM2 130724Z 11003KT M06/M12 A3026 RMK A01 T10581119  RH  062%=      5-min Rain = 0
KAM2 130725Z 12003KT M06/M12 A3026 RMK A01 T10571119  RH  061%=      5-min Rain = 0
KAM2 130726Z 13002KT M06/M12 A3026 RMK A01 T10561120  RH  061%=      5-min Rain = 0
KAM2 130727Z 14002KT M06/M12 A3026 RMK A01 T10561120  RH  061%=      5-min Rain = 0
KAM2 130728Z 14002KT M06/M12 A3026 RMK A01 T10551119  RH  061%=      5-min Rain = 0
KAM2 130729Z 15002KT M06/M12 A3026 RMK A01 T10551119  RH  060%=      5-min Rain = 0
KAM2 130730Z 15002KT M06/M12 A3026 RMK A01 T10561117  RH  062%=      5-min Rain = 0
KAM2 130731Z 14002KT M06/M12 A3026 RMK A01 T10571115  RH  064%=      5-min Rain = 0
KAM2 130732Z 14002KT M06/M12 A3026 RMK A01 T10581115  RH  064%=      5-min Rain = 0
KAM2 130733Z 14002KT M06/M12 A3026 RMK A01 T10591115  RH  065%=      5-min Rain = 0
KAM2 130734Z 14002KT M06/M12 A3026 RMK A01 T10601115  RH  065%=      5-min Rain = 0
KAM2 130735Z 14002KT M06/M12 A3026 RMK A01 T10601115  RH  065%=      5-min Rain = 0
KAM2 130736Z 15002KT M06/M12 A3026 RMK A01 T10601115  RH  065%=      5-min Rain = 0
KAM2 130737Z 15002KT M06/M12 A3026 RMK A01 T10601115  RH  065%=      5-min Rain = 0
KAM2 130738Z 16002KT M06/M12 A3026 RMK A01 T10601115  RH  065%=      5-min Rain = 0
KAM2 130739Z 15003KT M06/M11 A3026 RMK A01 T10611114  RH  066%=      5-min Rain = 0
KAM2 130740Z 15003KT M06/M12 A3026 RMK A01 T10601115  RH  065%=      5-min Rain = 0
KAM2 130741Z 16003KT M06/M12 A3026 RMK A01 T10601116  RH  064%=      5-min Rain = 0
KAM2 130742Z 17003KT M06/M12 A3026 RMK A01 T10591117  RH  064%=      5-min Rain = 0
KAM2 130743Z 17003KT M06/M12 A3026 RMK A01 T10571116  RH  063%=      5-min Rain = 0
KAM2 130744Z 18003KT M06/M12 A3026 RMK A01 T10561116  RH  062%=      5-min Rain = 0
KAM2 130745Z 17003KT M06/M12 A3026 RMK A01 T10551118  RH  061%=      5-min Rain = 0
KAM2 130746Z 18004KT M05/M12 A3026 RMK A01 T10541117  RH  061%=      5-min Rain = 0
KAM2 130747Z 18004KT M05/M12 A3026 RMK A01 T10541115  RH  062%=      5-min Rain = 0
KAM2 130748Z 17005KT M05/M11 A3026 RMK A01 T10541114  RH  063%=      5-min Rain = 0
KAM2 130749Z 17005KT M05/M12 A3026 RMK A01 T10541116  RH  062%=      5-min Rain = 0
KAM2 130750Z 17006KT M06/M12 A3026 RMK A01 T10551119  RH  061%=      5-min Rain = 0
KAM2 130751Z 16006KT M06/M12 A3026 RMK A01 T10551121  RH  060%=      5-min Rain = 0
KAM2 130752Z 16005KT M06/M12 A3026 RMK A01 T10551121  RH  060%=      5-min Rain = 0
KAM2 130753Z 17004KT M06/M12 A3026 RMK A01 T10561122  RH  060%=      5-min Rain = 0
KAM2 130754Z 17003KT M06/M12 A3026 RMK A01 T10561122  RH  060%=      5-min Rain = 0
KAM2 130755Z 17002KT M06/M12 A3026 RMK A01 T10561122  RH  060%=      5-min Rain = 0
KAM2 130756Z 17002KT M06/M12 A3026 RMK A01 T10571122  RH  060%=      5-min Rain = 0
KAM2 130757Z 15001KT M06/M12 A3026 RMK A01 T10581122  RH  061%=      5-min Rain = 0
KAM2 130758Z 12001KT M06/M12 A3026 RMK A01 T10611122  RH  062%=      5-min Rain = 0
KAM2 130759Z 12000KT M06/M12 A3026 RMK A01 T10631120  RH  064%=      5-min Rain = 0
KAM2 130800Z 10000KT M07/M12 A3026 RMK A01 T10651120  RH  065%=      5-min Rain = 0
KAM2 130801Z 08001KT M07/M12 A3026 RMK A01 T10671120  RH  066%=      5-min Rain = 0
KAM2 130802Z 09001KT M07/M12 A3026 RMK A01 T10691120  RH  067%=      5-min Rain = 0
KAM2 130803Z 10001KT M07/M12 A3026 RMK A01 T10701122  RH  067%=      5-min Rain = 0
KAM2 130804Z 13001KT M07/M12 A3026 RMK A01 T10711124  RH  066%=      5-min Rain = 0
KAM2 130805Z 12001KT M07/M13 A3026 RMK A01 T10711125  RH  065%=      5-min Rain = 0
KAM2 130806Z 13002KT M07/M13 A3026 RMK A01 T10721125  RH  065%=      5-min Rain = 0
KAM2 130807Z 14003KT M07/M12 A3026 RMK A01 T10721124  RH  066%=      5-min Rain = 0
KAM2 130808Z 14003KT M07/M12 A3026 RMK A01 T10691120  RH  067%=      5-min Rain = 0
KAM2 130809Z 14003KT M07/M12 A3026 RMK A01 T10661118  RH  067%=      5-min Rain = 0
KAM2 130810Z 15003KT M07/M12 A3025 RMK A01 T10651117  RH  066%=      5-min Rain = 0
KAM2 130811Z 15004KT M07/M12 A3025 RMK A01 T10651118  RH  066%=      5-min Rain = 0
KAM2 130812Z 16004KT M07/M12 A3025 RMK A01 T10661118  RH  067%=      5-min Rain = 0
KAM2 130813Z 16004KT M07/M12 A3025 RMK A01 T10691119  RH  067%=      5-min Rain = 0
KAM2 130814Z 16005KT M07/M12 A3025 RMK A01 T10711121  RH  068%=      5-min Rain = 0
KAM2 130815Z 16005KT M07/M12 A3025 RMK A01 T10711120  RH  068%=      5-min Rain = 0
KAM2 130816Z 16006KT M07/M12 A3025 RMK A01 T10701119  RH  068%=      5-min Rain = 0
KAM2 130817Z 16007KT M07/M12 A3025 RMK A01 T10691120  RH  067%=      5-min Rain = 0
KAM2 130818Z 17007KT M07/M12 A3025 RMK A01 T10691121  RH  066%=      5-min Rain = 0
KAM2 130819Z 16007KT M07/M12 A3025 RMK A01 T10681121  RH  066%=      5-min Rain = 0
KAM2 130820Z 16007KT M07/M12 A3025 RMK A01 T10671121  RH  065%=      5-min Rain = 0
KAM2 130821Z 16007KT M07/M12 A3025 RMK A01 T10661122  RH  064%=      5-min Rain = 0
KAM2 130822Z 16007KT M07/M12 A3025 RMK A01 T10661123  RH  064%=      5-min Rain = 0
KAM2 130823Z 16006KT M07/M12 A3025 RMK A01 T10661123  RH  064%=      5-min Rain = 0
KAM2 130824Z 17006KT M07/M12 A3025 RMK A01 T10661123  RH  064%=      5-min Rain = 0
KAM2 130825Z 17006KT M07/M12 A3025 RMK A01 T10661124  RH  064%=      5-min Rain = 0
KAM2 130826Z 17006KT M07/M12 A3025 RMK A01 T10661124  RH  064%=      5-min Rain = 0
KAM2 130827Z 17005KT M07/M12 A3025 RMK A01 T10661124  RH  063%=      5-min Rain = 0
KAM2 130828Z 17006KT M07/M12 A3025 RMK A01 T10651124  RH  063%=      5-min Rain = 0
KAM2 130829Z 17006KT M07/M12 A3025 RMK A01 T10651124  RH  063%=      5-min Rain = 0
KAM2 130830Z 16005KT M07/M12 A3026 RMK A01 T10651123  RH  063%=      5-min Rain = 0
KAM2 130831Z 17005KT M06/M12 A3025 RMK A01 T10641123  RH  063%=      5-min Rain = 0
KAM2 130832Z 17005KT M06/M12 A3026 RMK A01 T10641123  RH  063%=      5-min Rain = 0
KAM2 130833Z 17004KT M06/M12 A3026 RMK A01 T10631123  RH  063%=      5-min Rain = 0
KAM2 130834Z 17004KT M06/M12 A3026 RMK A01 T10621122  RH  063%=      5-min Rain = 0
KAM2 130835Z 18003KT M06/M12 A3026 RMK A01 T10621121  RH  063%=      5-min Rain = 0
KAM2 130836Z 18002KT M06/M12 A3026 RMK A01 T10611121  RH  063%=      5-min Rain = 0
KAM2 130837Z 18002KT M06/M12 A3026 RMK A01 T10611120  RH  063%=      5-min Rain = 0
KAM2 130838Z 19002KT M06/M12 A3026 RMK A01 T10611121  RH  063%=      5-min Rain = 0
KAM2 130839Z 19002KT M06/M12 A3026 RMK A01 T10621122  RH  062%=      5-min Rain = 0
KAM2 130840Z 18002KT M06/M12 A3026 RMK A01 T10641124  RH  062%=      5-min Rain = 0
KAM2 130841Z 18002KT M07/M12 A3026 RMK A01 T10671124  RH  064%=      5-min Rain = 0
KAM2 130842Z 17002KT M07/M12 A3025 RMK A01 T10691124  RH  065%=      5-min Rain = 0
KAM2 130843Z 17003KT M07/M12 A3025 RMK A01 T10711124  RH  066%=      5-min Rain = 0
KAM2 130844Z 16004KT M07/M12 A3025 RMK A01 T10711123  RH  066%=      5-min Rain = 0
KAM2 130845Z 17004KT M07/M12 A3025 RMK A01 T10691121  RH  067%=      5-min Rain = 0
KAM2 130846Z 17004KT M07/M12 A3025 RMK A01 T10681121  RH  066%=      5-min Rain = 0
KAM2 130847Z 17005KT M07/M12 A3025 RMK A01 T10671119  RH  067%=      5-min Rain = 0
KAM2 130848Z 17005KT M07/M12 A3025 RMK A01 T10651117  RH  067%=      5-min Rain = 0
KAM2 130849Z 16005KT M06/M12 A3025 RMK A01 T10641117  RH  066%=      5-min Rain = 0
KAM2 130850Z 16006KT M06/M12 A3025 RMK A01 T10631117  RH  065%=      5-min Rain = 0
KAM2 130851Z 16005KT M06/M12 A3025 RMK A01 T10621117  RH  065%=      5-min Rain = 0
KAM2 130852Z 16005KT M06/M12 A3025 RMK A01 T10611117  RH  065%=      5-min Rain = 0
KAM2 130853Z 16005KT M06/M12 A3025 RMK A01 T10611117  RH  065%=      5-min Rain = 0
KAM2 130854Z 16005KT M06/M12 A3025 RMK A01 T10611117  RH  064%=      5-min Rain = 0
KAM2 130855Z 16005KT M06/M12 A3025 RMK A01 T10611117  RH  064%=      5-min Rain = 0
KAM2 130856Z 16005KT M06/M12 A3025 RMK A01 T10601117  RH  064%=      5-min Rain = 0
KAM2 130857Z 16005KT M06/M12 A3025 RMK A01 T10601117  RH  064%=      5-min Rain = 0
KAM2 130858Z 16005KT M06/M12 A3025 RMK A01 T10601117  RH  064%=      5-min Rain = 0
KAM2 130859Z 16006KT M06/M12 A3025 RMK A01 T10601116  RH  065%=      5-min Rain = 0
KAM2 130900Z 16005KT M06/M12 A3025 RMK A01 T10601115  RH  065%=      5-min Rain = 0
KAM2 130901Z 16005KT M06/M12 A3025 RMK A01 T10601115  RH  065%=      5-min Rain = 0
KAM2 130902Z 16006KT M06/M12 A3025 RMK A01 T10601115  RH  065%=      5-min Rain = 0
KAM2 130903Z 16006KT M06/M11 A3025 RMK A01 T10601114  RH  065%=      5-min Rain = 0
KAM2 130904Z 17005KT M06/M11 A3025 RMK A01 T10591114  RH  065%=      5-min Rain = 0
KAM2 130905Z 17005KT M06/M11 A3025 RMK A01 T10591114  RH  065%=      5-min Rain = 0
KAM2 130906Z 17004KT M06/M11 A3025 RMK A01 T10601114  RH  066%=      5-min Rain = 0
KAM2 130907Z 17004KT M06/M11 A3025 RMK A01 T10591113  RH  066%=      5-min Rain = 0
KAM2 130908Z 17004KT M06/M11 A3025 RMK A01 T10591113  RH  065%=      5-min Rain = 0
KAM2 130909Z 18003KT M06/M11 A3025 RMK A01 T10581113  RH  065%=      5-min Rain = 0
KAM2 130910Z 18003KT M06/M11 A3025 RMK A01 T10591113  RH  065%=      5-min Rain = 0
KAM2 130911Z 18003KT M06/M12 A3025 RMK A01 T10591115  RH  065%=      5-min Rain = 0
KAM2 130912Z 19002KT M06/M12 A3025 RMK A01 T10631119  RH  065%=      5-min Rain = 0
KAM2 130913Z 18001KT M07/M12 A3025 RMK A01 T10671121  RH  066%=      5-min Rain = 0
KAM2 130914Z 17002KT M07/M12 A3025 RMK A01 T10711122  RH  067%=      5-min Rain = 0
KAM2 130915Z 17002KT M07/M12 A3025 RMK A01 T10741122  RH  068%=      5-min Rain = 0
KAM2 130916Z 17003KT M08/M12 A3025 RMK A01 T10751122  RH  069%=      5-min Rain = 0
KAM2 130917Z 17003KT M08/M12 A3025 RMK A01 T10761121  RH  070%=      5-min Rain = 0
KAM2 130918Z 17003KT M08/M12 A3025 RMK A01 T10761119  RH  071%=      5-min Rain = 0
KAM2 130919Z 18004KT M07/M12 A3025 RMK A01 T10741115  RH  072%=      5-min Rain = 0
KAM2 130920Z 18005KT M07/M11 A3025 RMK A01 T10721113  RH  072%=      5-min Rain = 0
KAM2 130921Z 18005KT M07/M11 A3025 RMK A01 T10711111  RH  073%=      5-min Rain = 0
KAM2 130922Z 19005KT M07/M11 A3025 RMK A01 T10711110  RH  073%=      5-min Rain = 0
KAM2 130923Z 19006KT M07/M11 A3025 RMK A01 T10691109  RH  073%=      5-min Rain = 0
KAM2 130924Z 19006KT M07/M11 A3025 RMK A01 T10661109  RH  072%=      5-min Rain = 0
KAM2 130925Z 19006KT M07/M11 A3025 RMK A01 T10651109  RH  071%=      5-min Rain = 0
KAM2 130926Z 19005KT M06/M11 A3025 RMK A01 T10641110  RH  069%=      5-min Rain = 0
KAM2 130927Z 19004KT M06/M11 A3025 RMK A01 T10631111  RH  069%=      5-min Rain = 0
KAM2 130928Z 19004KT M06/M11 A3025 RMK A01 T10621112  RH  068%=      5-min Rain = 0
KAM2 130929Z 19004KT M06/M11 A3025 RMK A01 T10621112  RH  068%=      5-min Rain = 0
KAM2 130930Z 20003KT M06/M11 A3025 RMK A01 T10631114  RH  067%=      5-min Rain = 0
KAM2 130931Z 20003KT M06/M12 A3025 RMK A01 T10641116  RH  067%=      5-min Rain = 0
KAM2 130932Z 21003KT M07/M12 A3026 RMK A01 T10661115  RH  068%=      5-min Rain = 0
KAM2 130933Z 21003KT M07/M12 A3026 RMK A01 T10671115  RH  069%=      5-min Rain = 0
KAM2 130934Z 20003KT M07/M12 A3026 RMK A01 T10681115  RH  069%=      5-min Rain = 0
KAM2 130935Z 21003KT M07/M12 A3026 RMK A01 T10681115  RH  070%=      5-min Rain = 0
KAM2 130936Z 20004KT M07/M12 A3026 RMK A01 T10691115  RH  070%=      5-min Rain = 0
KAM2 130937Z 19004KT M07/M11 A3026 RMK A01 T10691114  RH  070%=      5-min Rain = 0
KAM2 130938Z 19004KT M07/M11 A3026 RMK A01 T10681113  RH  071%=      5-min Rain = 0
KAM2 130939Z 18004KT M07/M11 A3025 RMK A01 T10671112  RH  071%=      5-min Rain = 0
KAM2 130940Z 18005KT M07/M11 A3025 RMK A01 T10671112  RH  070%=      5-min Rain = 0
KAM2 130941Z 18005KT M07/M11 A3025 RMK A01 T10671113  RH  069%=      5-min Rain = 0
KAM2 130942Z 18005KT M07/M11 A3025 RMK A01 T10671114  RH  069%=      5-min Rain = 0
KAM2 130943Z 18005KT M07/M12 A3025 RMK A01 T10671115  RH  069%=      5-min Rain = 0
KAM2 130944Z 18005KT M07/M12 A3025 RMK A01 T10671115  RH  069%=      5-min Rain = 0
KAM2 130945Z 18005KT M07/M11 A3025 RMK A01 T10671114  RH  069%=      5-min Rain = 0
KAM2 130946Z 17005KT M07/M12 A3025 RMK A01 T10671115  RH  069%=      5-min Rain = 0
KAM2 130947Z 17005KT M07/M12 A3025 RMK A01 T10671115  RH  068%=      5-min Rain = 0
KAM2 130948Z 17005KT M07/M12 A3025 RMK A01 T10671116  RH  068%=      5-min Rain = 0
KAM2 130949Z 18004KT M07/M12 A3025 RMK A01 T10671116  RH  068%=      5-min Rain = 0
KAM2 130950Z 18004KT M07/M12 A3025 RMK A01 T10671115  RH  069%=      5-min Rain = 0
KAM2 130951Z 18004KT M07/M11 A3025 RMK A01 T10661114  RH  069%=      5-min Rain = 0
KAM2 130952Z 18004KT M07/M11 A3025 RMK A01 T10661114  RH  069%=      5-min Rain = 0
KAM2 130953Z 18004KT M07/M11 A3025 RMK A01 T10661113  RH  069%=      5-min Rain = 0
KAM2 130954Z 18005KT M07/M11 A3025 RMK A01 T10671113  RH  069%=      5-min Rain = 0
KAM2 130955Z 18005KT M07/M11 A3025 RMK A01 T10671114  RH  069%=      5-min Rain = 0
KAM2 130956Z 18005KT M07/M12 A3025 RMK A01 T10681116  RH  069%=      5-min Rain = 0
KAM2 130957Z 18005KT M07/M12 A3025 RMK A01 T10681116  RH  068%=      5-min Rain = 0
KAM2 130958Z 18006KT M07/M12 A3025 RMK A01 T10681116  RH  069%=      5-min Rain = 0
KAM2 130959Z 17006KT M07/M12 A3025 RMK A01 T10681116  RH  068%=      5-min Rain = 0
KAM2 131000Z 17007KT M07/M12 A3026 RMK A01 T10681117  RH  068%=      5-min Rain = 0
KAM2 131001Z 17007KT M07/M12 A3026 RMK A01 T10681117  RH  069%=      5-min Rain = 0
KAM2 131002Z 17007KT M07/M12 A3025 RMK A01 T10681116  RH  069%=      5-min Rain = 0
KAM2 131003Z 17007KT M07/M12 A3025 RMK A01 T10691117  RH  069%=      5-min Rain = 0
KAM2 131004Z 17007KT M07/M12 A3025 RMK A01 T10691117  RH  069%=      5-min Rain = 0
KAM2 131005Z 17008KT M07/M12 A3025 RMK A01 T10701116  RH  069%=      5-min Rain = 0
KAM2 131006Z 17008KT M07/M12 A3025 RMK A01 T10701116  RH  070%=      5-min Rain = 0
KAM2 131007Z 17007KT M07/M12 A3025 RMK A01 T10711117  RH  070%=      5-min Rain = 0
KAM2 131008Z 17008KT M07/M12 A3026 RMK A01 T10701117  RH  070%=      5-min Rain = 0
KAM2 131009Z 17008KT M07/M12 A3026 RMK A01 T10701117  RH  069%=      5-min Rain = 0
KAM2 131010Z 17007KT M07/M12 A3026 RMK A01 T10711117  RH  069%=      5-min Rain = 0
KAM2 131011Z 17007KT M07/M12 A3026 RMK A01 T10711117  RH  069%=      5-min Rain = 0
KAM2 131012Z 17007KT M07/M12 A3026 RMK A01 T10711118  RH  070%=      5-min Rain = 0
KAM2 131013Z 17007KT M07/M12 A3026 RMK A01 T10721117  RH  070%=      5-min Rain = 0
KAM2 131014Z 17007KT M07/M12 A3026 RMK A01 T10721117  RH  070%=      5-min Rain = 0
KAM2 131015Z 17007KT M07/M12 A3026 RMK A01 T10721117  RH  070%=      5-min Rain = 0
KAM2 131016Z 17007KT M07/M12 A3026 RMK A01 T10721117  RH  070%=      5-min Rain = 0
KAM2 131017Z 17008KT M07/M12 A3026 RMK A01 T10721117  RH  071%=      5-min Rain = 0
KAM2 131018Z 17008KT M07/M12 A3026 RMK A01 T10721117  RH  071%=      5-min Rain = 0
KAM2 131019Z 16008KT M07/M12 A3026 RMK A01 T10721117  RH  071%=      5-min Rain = 0
KAM2 131020Z 16008KT M07/M12 A3026 RMK A01 T10731118  RH  071%=      5-min Rain = 0
KAM2 131021Z 16008KT M07/M12 A3026 RMK A01 T10741118  RH  071%=      5-min Rain = 0
KAM2 131022Z 16007KT M07/M12 A3026 RMK A01 T10741118  RH  071%=      5-min Rain = 0
KAM2 131023Z 16007KT M08/M12 A3026 RMK A01 T10751118  RH  071%=      5-min Rain = 0
KAM2 131024Z 16007KT M08/M12 A3026 RMK A01 T10751118  RH  071%=      5-min Rain = 0
KAM2 131025Z 17007KT M08/M12 A3026 RMK A01 T10751118  RH  071%=      5-min Rain = 0
KAM2 131026Z 17007KT M08/M12 A3026 RMK A01 T10761118  RH  071%=      5-min Rain = 0
KAM2 131027Z 17007KT M08/M12 A3026 RMK A01 T10761118  RH  071%=      5-min Rain = 0
KAM2 131028Z 17007KT M08/M12 A3026 RMK A01 T10751118  RH  071%=      5-min Rain = 0
KAM2 131029Z 17007KT M07/M12 A3026 RMK A01 T10741117  RH  071%=      5-min Rain = 0
KAM2 131030Z 16007KT M07/M12 A3026 RMK A01 T10731117  RH  071%=      5-min Rain = 0
KAM2 131031Z 16007KT M07/M12 A3026 RMK A01 T10731117  RH  071%=      5-min Rain = 0
KAM2 131032Z 16006KT M07/M12 A3026 RMK A01 T10721117  RH  070%=      5-min Rain = 0
KAM2 131033Z 17006KT M07/M12 A3026 RMK A01 T10721117  RH  070%=      5-min Rain = 0
KAM2 131034Z 16006KT M07/M12 A3026 RMK A01 T10721117  RH  070%=      5-min Rain = 0
KAM2 131035Z 16006KT M07/M12 A3026 RMK A01 T10721117  RH  070%=      5-min Rain = 0
KAM2 131036Z 17006KT M07/M12 A3026 RMK A01 T10711117  RH  070%=      5-min Rain = 0
KAM2 131037Z 17006KT M07/M12 A3026 RMK A01 T10711117  RH  070%=      5-min Rain = 0
KAM2 131038Z 17006KT M07/M12 A3026 RMK A01 T10711117  RH  070%=      5-min Rain = 0
KAM2 131039Z 17006KT M07/M12 A3026 RMK A01 T10711117  RH  070%=      5-min Rain = 0
KAM2 131040Z 17005KT M07/M12 A3026 RMK A01 T10701116  RH  069%=      5-min Rain = 0
KAM2 131041Z 17005KT M07/M12 A3026 RMK A01 T10701117  RH  069%=      5-min Rain = 0
KAM2 131042Z 17006KT M07/M12 A3026 RMK A01 T10711118  RH  069%=      5-min Rain = 0
KAM2 131043Z 16006KT M07/M12 A3026 RMK A01 T10711117  RH  069%=      5-min Rain = 0
KAM2 131044Z 16006KT M07/M12 A3026 RMK A01 T10711117  RH  069%=      5-min Rain = 0
KAM2 131045Z 16006KT M07/M12 A3026 RMK A01 T10721118  RH  070%=      5-min Rain = 0
KAM2 131046Z 16005KT M07/M12 A3026 RMK A01 T10711117  RH  070%=      5-min Rain = 0
KAM2 131047Z 16006KT M07/M12 A3026 RMK A01 T10711117  RH  070%=      5-min Rain = 0
KAM2 131048Z 16005KT M07/M12 A3026 RMK A01 T10711117  RH  070%=      5-min Rain = 0
KAM2 131049Z 16005KT M07/M12 A3026 RMK A01 T10721117  RH  070%=      5-min Rain = 0
KAM2 131050Z 16005KT M07/M12 A3026 RMK A01 T10721117  RH  070%=      5-min Rain = 0
KAM2 131051Z 16005KT M07/M12 A3026 RMK A01 T10721117  RH  070%=      5-min Rain = 0
KAM2 131052Z 16005KT M07/M12 A3026 RMK A01 T10731118  RH  070%=      5-min Rain = 0
KAM2 131053Z 15005KT M07/M12 A3026 RMK A01 T10731118  RH  070%=      5-min Rain = 0
KAM2 131054Z 15005KT M07/M12 A3026 RMK A01 T10741118  RH  071%=      5-min Rain = 0
KAM2 131055Z 15005KT M07/M12 A3026 RMK A01 T10741117  RH  071%=      5-min Rain = 0
KAM2 131056Z 15005KT M07/M12 A3026 RMK A01 T10741116  RH  072%=      5-min Rain = 0
KAM2 131057Z 15006KT M07/M12 A3026 RMK A01 T10741115  RH  072%=      5-min Rain = 0
KAM2 131058Z 15006KT M07/M11 A3026 RMK A01 T10741114  RH  073%=      5-min Rain = 0
KAM2 131059Z 15006KT M07/M11 A3026 RMK A01 T10741114  RH  073%=      5-min Rain = 0
KAM2 131100Z 15006KT M07/M11 A3026 RMK A01 T10741114  RH  073%=      5-min Rain = 0
KAM2 131101Z 16006KT M07/M11 A3026 RMK A01 T10741114  RH  073%=      5-min Rain = 0
KAM2 131102Z 16007KT M07/M12 A3026 RMK A01 T10741115  RH  072%=      5-min Rain = 0
KAM2 131103Z 16007KT M07/M12 A3025 RMK A01 T10741115  RH  072%=      5-min Rain = 0
KAM2 131104Z 16007KT M07/M12 A3025 RMK A01 T10741116  RH  072%=      5-min Rain = 0
KAM2 131105Z 15007KT M07/M12 A3025 RMK A01 T10741116  RH  072%=      5-min Rain = 0
KAM2 131106Z 16007KT M07/M12 A3025 RMK A01 T10741116  RH  072%=      5-min Rain = 0
KAM2 131107Z 15006KT M07/M12 A3025 RMK A01 T10741116  RH  072%=      5-min Rain = 0
KAM2 131108Z 15006KT M07/M12 A3025 RMK A01 T10741116  RH  072%=      5-min Rain = 0
KAM2 131109Z 15006KT M07/M12 A3025 RMK A01 T10741116  RH  072%=      5-min Rain = 0
KAM2 131110Z 15006KT M07/M12 A3025 RMK A01 T10741115  RH  073%=      5-min Rain = 0
KAM2 131111Z 15006KT M07/M12 A3025 RMK A01 T10741115  RH  073%=      5-min Rain = 0
KAM2 131112Z 14005KT M07/M12 A3025 RMK A01 T10741115  RH  073%=      5-min Rain = 0
KAM2 131113Z 14005KT M07/M11 A3025 RMK A01 T10741114  RH  073%=      5-min Rain = 0
KAM2 131114Z 15006KT M07/M11 A3025 RMK A01 T10741114  RH  073%=      5-min Rain = 0
KAM2 131115Z 15005KT M07/M11 A3025 RMK A01 T10741114  RH  073%=      5-min Rain = 0
KAM2 131116Z 15006KT M07/M11 A3025 RMK A01 T10741114  RH  073%=      5-min Rain = 0
KAM2 131117Z 15005KT M07/M11 A3025 RMK A01 T10741114  RH  073%=      5-min Rain = 0
KAM2 131118Z 15005KT M07/M11 A3025 RMK A01 T10741114  RH  073%=      5-min Rain = 0
KAM2 131119Z 15005KT M07/M12 A3025 RMK A01 T10741115  RH  072%=      5-min Rain = 0
KAM2 131120Z 15005KT M08/M12 A3025 RMK A01 T10751116  RH  072%=      5-min Rain = 0
KAM2 131121Z 15005KT M08/M12 A3025 RMK A01 T10751116  RH  072%=      5-min Rain = 0
KAM2 131122Z 15006KT M08/M12 A3025 RMK A01 T10751116  RH  072%=      5-min Rain = 0
KAM2 131123Z 15005KT M08/M12 A3025 RMK A01 T10761117  RH  073%=      5-min Rain = 0
KAM2 131124Z 15006KT M08/M12 A3025 RMK A01 T10761117  RH  073%=      5-min Rain = 0
KAM2 131125Z 15006KT M08/M12 A3025 RMK A01 T10761116  RH  073%=      5-min Rain = 0
KAM2 131126Z 15006KT M08/M12 A3025 RMK A01 T10761116  RH  073%=      5-min Rain = 0
KAM2 131127Z 15006KT M08/M12 A3025 RMK A01 T10771116  RH  073%=      5-min Rain = 0
KAM2 131128Z 15005KT M08/M12 A3025 RMK A01 T10771117  RH  073%=      5-min Rain = 0
KAM2 131129Z 15005KT M08/M12 A3025 RMK A01 T10771117  RH  073%=      5-min Rain = 0
KAM2 131130Z 15004KT M08/M12 A3025 RMK A01 T10781118  RH  073%=      5-min Rain = 0
KAM2 131131Z 15004KT M08/M12 A3025 RMK A01 T10781118  RH  073%=      5-min Rain = 0
KAM2 131132Z 16004KT M08/M12 A3025 RMK A01 T10781117  RH  073%=      5-min Rain = 0
KAM2 131133Z 15004KT M08/M12 A3025 RMK A01 T10791118  RH  073%=      5-min Rain = 0
KAM2 131134Z 15004KT M08/M12 A3025 RMK A01 T10791118  RH  074%=      5-min Rain = 0
KAM2 131135Z 16004KT M08/M12 A3025 RMK A01 T10791118  RH  073%=      5-min Rain = 0
KAM2 131136Z 17003KT M08/M12 A3025 RMK A01 T10791118  RH  073%=      5-min Rain = 0
KAM2 131137Z 17003KT M08/M12 A3025 RMK A01 T10791118  RH  073%=      5-min Rain = 0
KAM2 131138Z 17003KT M08/M12 A3025 RMK A01 T10791118  RH  073%=      5-min Rain = 0
KAM2 131139Z 18003KT M08/M12 A3025 RMK A01 T10791118  RH  073%=      5-min Rain = 0
KAM2 131140Z 18003KT M08/M12 A3025 RMK A01 T10781117  RH  074%=      5-min Rain = 0
KAM2 131141Z 18003KT M08/M12 A3025 RMK A01 T10781117  RH  074%=      5-min Rain = 0
KAM2 131142Z 17003KT M08/M12 A3025 RMK A01 T10771117  RH  073%=      5-min Rain = 0
KAM2 131143Z 17003KT M08/M12 A3025 RMK A01 T10771117  RH  073%=      5-min Rain = 0
KAM2 131144Z 17003KT M08/M12 A3025 RMK A01 T10771117  RH  073%=      5-min Rain = 0
KAM2 131145Z 17003KT M08/M12 A3025 RMK A01 T10781118  RH  073%=      5-min Rain = 0
KAM2 131146Z 17003KT M08/M12 A3025 RMK A01 T10781118  RH  073%=      5-min Rain = 0
KAM2 131147Z 17003KT M08/M12 A3025 RMK A01 T10781119  RH  073%=      5-min Rain = 0
KAM2 131148Z 17003KT M08/M12 A3025 RMK A01 T10791119  RH  073%=      5-min Rain = 0
KAM2 131149Z 17002KT M08/M12 A3025 RMK A01 T10791119  RH  073%=      5-min Rain = 0
KAM2 131150Z 19002KT M08/M12 A3025 RMK A01 T10801119  RH  073%=      5-min Rain = 0
KAM2 131151Z 20002KT M08/M12 A3026 RMK A01 T10801118  RH  074%=      5-min Rain = 0
KAM2 131152Z 20003KT M08/M12 A3026 RMK A01 T10801118  RH  074%=      5-min Rain = 0
KAM2 131153Z 20003KT M08/M12 A3026 RMK A01 T10801118  RH  074%=      5-min Rain = 0
KAM2 131154Z 19003KT M08/M12 A3026 RMK A01 T10801118  RH  074%=      5-min Rain = 0
KAM2 131155Z 19003KT M08/M12 A3026 RMK A01 T10801118  RH  074%=      5-min Rain = 0
KAM2 131156Z 19003KT M08/M12 A3026 RMK A01 T10801118  RH  074%=      5-min Rain = 0
KAM2 131157Z 19003KT M08/M12 A3026 RMK A01 T10791118  RH  074%=      5-min Rain = 0
KAM2 131158Z 19004KT M08/M12 A3026 RMK A01 T10801118  RH  074%=      5-min Rain = 0
KAM2 131159Z 18004KT M08/M12 A3026 RMK A01 T10801118  RH  074%=      5-min Rain = 0
KAM2 131200Z 18004KT M08/M12 A3026 RMK A01 T10801119  RH  074%=      5-min Rain = 0
KAM2 131201Z 18004KT M08/M12 A3026 RMK A01 T10801120  RH  073%=      5-min Rain = 0
KAM2 131202Z 19004KT M08/M12 A3026 RMK A01 T10811120  RH  074%=      5-min Rain = 0
KAM2 131203Z 19004KT M08/M12 A3026 RMK A01 T10821120  RH  074%=      5-min Rain = 0
KAM2 131204Z 19004KT M08/M12 A3026 RMK A01 T10821120  RH  074%=      5-min Rain = 0
KAM2 131205Z 18004KT M08/M12 A3026 RMK A01 T10831120  RH  074%=      5-min Rain = 0
KAM2 131206Z 18004KT M08/M12 A3026 RMK A01 T10831120  RH  075%=      5-min Rain = 0
KAM2 131207Z 18004KT M08/M12 A3026 RMK A01 T10831120  RH  075%=      5-min Rain = 0
KAM2 131208Z 17004KT M08/M12 A3026 RMK A01 T10831120  RH  075%=      5-min Rain = 0
KAM2 131209Z 17004KT M08/M12 A3027 RMK A01 T10831120  RH  075%=      5-min Rain = 0
KAM2 131210Z 17004KT M08/M12 A3027 RMK A01 T10841120  RH  075%=      5-min Rain = 0
KAM2 131211Z 17004KT M08/M12 A3027 RMK A01 T10841121  RH  075%=      5-min Rain = 0
KAM2 131212Z 17004KT M08/M12 A3027 RMK A01 T10841121  RH  075%=      5-min Rain = 0
KAM2 131213Z 17004KT M09/M12 A3027 RMK A01 T10851122  RH  075%=      5-min Rain = 0
KAM2 131214Z 17005KT M09/M12 A3027 RMK A01 T10851122  RH  075%=      5-min Rain = 0
KAM2 131215Z 17005KT M09/M12 A3027 RMK A01 T10851122  RH  075%=      5-min Rain = 0
KAM2 131216Z 16005KT M09/M12 A3027 RMK A01 T10851122  RH  075%=      5-min Rain = 0
KAM2 131217Z 17005KT M09/M12 A3027 RMK A01 T10851122  RH  075%=      5-min Rain = 0
KAM2 131218Z 17005KT M09/M12 A3027 RMK A01 T10851122  RH  075%=      5-min Rain = 0
KAM2 131219Z 18005KT M09/M12 A3027 RMK A01 T10851122  RH  075%=      5-min Rain = 0
KAM2 131220Z 18005KT M09/M12 A3027 RMK A01 T10851121  RH  075%=      5-min Rain = 0
KAM2 131221Z 18005KT M09/M12 A3027 RMK A01 T10861122  RH  075%=      5-min Rain = 0
KAM2 131222Z 18005KT M09/M12 A3027 RMK A01 T10871122  RH  075%=      5-min Rain = 0
KAM2 131223Z 18004KT M09/M12 A3027 RMK A01 T10871122  RH  076%=      5-min Rain = 0
KAM2 131224Z 18004KT M09/M12 A3027 RMK A01 T10881123  RH  076%=      5-min Rain = 0
KAM2 131225Z 18003KT M09/M12 A3027 RMK A01 T10881124  RH  076%=      5-min Rain = 0
KAM2 131226Z 18003KT M09/M12 A3027 RMK A01 T10891124  RH  076%=      5-min Rain = 0
KAM2 131227Z 18003KT M09/M12 A3027 RMK A01 T10891123  RH  076%=      5-min Rain = 0
KAM2 131228Z 18002KT M09/M12 A3027 RMK A01 T10891123  RH  076%=      5-min Rain = 0
KAM2 131229Z 18003KT M09/M12 A3027 RMK A01 T10891124  RH  076%=      5-min Rain = 0
KAM2 131230Z 18003KT M09/M12 A3027 RMK A01 T10891124  RH  076%=      5-min Rain = 0
KAM2 131231Z 17003KT M09/M12 A3027 RMK A01 T10891124  RH  076%=      5-min Rain = 0
KAM2 131232Z 18003KT M09/M12 A3027 RMK A01 T10891124  RH  076%=      5-min Rain = 0
KAM2 131233Z 17004KT M09/M12 A3027 RMK A01 T10891124  RH  076%=      5-min Rain = 0
KAM2 131234Z 17004KT M09/M12 A3027 RMK A01 T10891124  RH  076%=      5-min Rain = 0
KAM2 131235Z 17004KT M09/M13 A3027 RMK A01 T10901125  RH  076%=      5-min Rain = 0
KAM2 131236Z 17003KT M09/M13 A3027 RMK A01 T10901125  RH  076%=      5-min Rain = 0
KAM2 131237Z 18003KT M09/M13 A3027 RMK A01 T10901125  RH  076%=      5-min Rain = 0
KAM2 131238Z 17002KT M09/M13 A3027 RMK A01 T10911125  RH  076%=      5-min Rain = 0
KAM2 131239Z 17003KT M09/M13 A3027 RMK A01 T10911125  RH  076%=      5-min Rain = 0
KAM2 131240Z 17003KT M09/M13 A3027 RMK A01 T10911125  RH  076%=      5-min Rain = 0
KAM2 131241Z 17003KT M09/M12 A3027 RMK A01 T10901124  RH  076%=      5-min Rain = 0
KAM2 131242Z 17003KT M09/M12 A3027 RMK A01 T10901124  RH  076%=      5-min Rain = 0
KAM2 131243Z 18002KT M09/M12 A3027 RMK A01 T10901124  RH  076%=      5-min Rain = 0
KAM2 131244Z 18002KT M09/M12 A3027 RMK A01 T10901124  RH  076%=      5-min Rain = 0
KAM2 131245Z 20002KT M09/M12 A3027 RMK A01 T10891124  RH  076%=      5-min Rain = 0
KAM2 131246Z 20001KT M09/M13 A3027 RMK A01 T10891125  RH  075%=      5-min Rain = 0
KAM2 131247Z 19002KT M09/M13 A3027 RMK A01 T10901126  RH  075%=      5-min Rain = 0
KAM2 131248Z 18002KT M09/M13 A3027 RMK A01 T10901126  RH  075%=      5-min Rain = 0
KAM2 131249Z 18002KT M09/M13 A3027 RMK A01 T10901125  RH  075%=      5-min Rain = 0
KAM2 131250Z 18002KT M09/M13 A3027 RMK A01 T10901125  RH  076%=      5-min Rain = 0
KAM2 131251Z 18002KT M09/M12 A3027 RMK A01 T10901124  RH  076%=      5-min Rain = 0
KAM2 131252Z 18002KT M09/M12 A3027 RMK A01 T10901124  RH  076%=      5-min Rain = 0
KAM2 131253Z 19001KT M09/M12 A3027 RMK A01 T10901124  RH  076%=      5-min Rain = 0
KAM2 131254Z 19001KT M09/M12 A3027 RMK A01 T10901124  RH  076%=      5-min Rain = 0
KAM2 131255Z 00000KT M09/M13 A3027 RMK A01 T10901125  RH  076%=      5-min Rain = 0
KAM2 131256Z 00000KT M09/M12 A3027 RMK A01 T10901124  RH  076%=      5-min Rain = 0
KAM2 131257Z 19000KT M09/M12 A3027 RMK A01 T10901124  RH  077%=      5-min Rain = 0
KAM2 131258Z 19001KT M09/M12 A3027 RMK A01 T10901123  RH  077%=      5-min Rain = 0
KAM2 131259Z 19001KT M09/M12 A3027 RMK A01 T10901122  RH  077%=      5-min Rain = 0
KAM2 131300Z 19001KT M09/M12 A3027 RMK A01 T10891122  RH  077%=      5-min Rain = 0
KAM2 131301Z 20001KT M09/M12 A3027 RMK A01 T10881121  RH  077%=      5-min Rain = 0
KAM2 131302Z 20001KT M09/M12 A3027 RMK A01 T10871120  RH  077%=      5-min Rain = 0
KAM2 131303Z 19002KT M09/M12 A3027 RMK A01 T10871120  RH  077%=      5-min Rain = 0
KAM2 131304Z 18002KT M09/M12 A3027 RMK A01 T10861120  RH  077%=      5-min Rain = 0
KAM2 131305Z 17002KT M09/M12 A3027 RMK A01 T10861120  RH  077%=      5-min Rain = 0
KAM2 131306Z 18002KT M09/M12 A3027 RMK A01 T10861120  RH  077%=      5-min Rain = 0
KAM2 131307Z 18002KT M09/M12 A3027 RMK A01 T10861120  RH  076%=      5-min Rain = 0
KAM2 131308Z 19002KT M09/M12 A3027 RMK A01 T10861121  RH  076%=      5-min Rain = 0
KAM2 131309Z 20002KT M09/M12 A3027 RMK A01 T10871122  RH  076%=      5-min Rain = 0
KAM2 131310Z 21001KT M09/M12 A3027 RMK A01 T10871122  RH  076%=      5-min Rain = 0
KAM2 131311Z 21001KT M09/M12 A3027 RMK A01 T10881121  RH  077%=      5-min Rain = 0
KAM2 131312Z 22001KT M09/M12 A3027 RMK A01 T10871120  RH  077%=      5-min Rain = 0
KAM2 131313Z 25001KT M09/M12 A3027 RMK A01 T10871120  RH  077%=      5-min Rain = 0
KAM2 131314Z 29001KT M09/M12 A3027 RMK A01 T10891123  RH  076%=      5-min Rain = 0
KAM2 131315Z 29001KT M09/M12 A3027 RMK A01 T10901123  RH  077%=      5-min Rain = 0
KAM2 131316Z 30000KT M09/M12 A3027 RMK A01 T10901123  RH  077%=      5-min Rain = 0
KAM2 131317Z 00000KT M09/M13 A3027 RMK A01 T10901125  RH  076%=      5-min Rain = 0
KAM2 131318Z 18000KT M09/M12 A3028 RMK A01 T10901124  RH  076%=      5-min Rain = 0
KAM2 131319Z 18001KT M09/M12 A3027 RMK A01 T10901122  RH  077%=      5-min Rain = 0
KAM2 131320Z 18001KT M09/M12 A3027 RMK A01 T10901120  RH  079%=      5-min Rain = 0
KAM2 131321Z 18002KT M09/M12 A3028 RMK A01 T10901118  RH  080%=      5-min Rain = 0
KAM2 131322Z 19002KT M09/M12 A3028 RMK A01 T10901117  RH  081%=      5-min Rain = 0
KAM2 131323Z 18002KT M09/M12 A3028 RMK A01 T10911119  RH  080%=      5-min Rain = 0
KAM2 131324Z 18002KT M09/M12 A3028 RMK A01 T10911121  RH  079%=      5-min Rain = 0
KAM2 131325Z 19002KT M09/M12 A3028 RMK A01 T10921123  RH  078%=      5-min Rain = 0
KAM2 131326Z 18001KT M09/M12 A3028 RMK A01 T10921123  RH  078%=      5-min Rain = 0
KAM2 131327Z 17001KT M09/M12 A3028 RMK A01 T10911123  RH  078%=      5-min Rain = 0
KAM2 131328Z 17001KT M09/M12 A3028 RMK A01 T10911123  RH  078%=      5-min Rain = 0
KAM2 131329Z 17001KT M09/M12 A3028 RMK A01 T10921123  RH  078%=      5-min Rain = 0
KAM2 131330Z 18001KT M09/M12 A3028 RMK A01 T10911122  RH  078%=      5-min Rain = 0
KAM2 131331Z 18002KT M09/M12 A3028 RMK A01 T10911121  RH  079%=      5-min Rain = 0
KAM2 131332Z 18002KT M09/M12 A3028 RMK A01 T10911122  RH  079%=      5-min Rain = 0
KAM2 131333Z 18002KT M09/M12 A3028 RMK A01 T10911123  RH  078%=      5-min Rain = 0
KAM2 131334Z 18002KT M09/M12 A3028 RMK A01 T10911123  RH  078%=      5-min Rain = 0
KAM2 131335Z 19001KT M09/M12 A3029 RMK A01 T10921124  RH  078%=      5-min Rain = 0
KAM2 131336Z 20001KT M09/M12 A3029 RMK A01 T10921124  RH  078%=      5-min Rain = 0
KAM2 131337Z 21001KT M09/M12 A3029 RMK A01 T10921123  RH  078%=      5-min Rain = 0
KAM2 131338Z 21001KT M09/M12 A3029 RMK A01 T10921124  RH  078%=      5-min Rain = 0
KAM2 131339Z 20002KT M09/M12 A3029 RMK A01 T10921124  RH  078%=      5-min Rain = 0
KAM2 131340Z 20002KT M09/M12 A3029 RMK A01 T10921123  RH  078%=      5-min Rain = 0
KAM2 131341Z 18003KT M09/M12 A3029 RMK A01 T10911123  RH  078%=      5-min Rain = 0
KAM2 131342Z 18003KT M09/M12 A3029 RMK A01 T10911122  RH  078%=      5-min Rain = 0
KAM2 131343Z 17004KT M09/M12 A3029 RMK A01 T10911123  RH  078%=      5-min Rain = 0
KAM2 131344Z 17003KT M09/M12 A3029 RMK A01 T10921124  RH  077%=      5-min Rain = 0
KAM2 131345Z 18004KT M09/M13 A3029 RMK A01 T10921125  RH  077%=      5-min Rain = 0
KAM2 131346Z 17003KT M09/M13 A3029 RMK A01 T10921125  RH  077%=      5-min Rain = 0
KAM2 131347Z 17003KT M09/M12 A3029 RMK A01 T10921124  RH  077%=      5-min Rain = 0
KAM2 131348Z 18003KT M09/M13 A3029 RMK A01 T10911125  RH  077%=      5-min Rain = 0
KAM2 131349Z 18003KT M09/M12 A3029 RMK A01 T10911124  RH  076%=      5-min Rain = 0
KAM2 131350Z 18004KT M09/M12 A3029 RMK A01 T10901124  RH  076%=      5-min Rain = 0
KAM2 131351Z 18003KT M09/M12 A3029 RMK A01 T10901124  RH  076%=      5-min Rain = 0
KAM2 131352Z 19003KT M09/M12 A3029 RMK A01 T10891124  RH  076%=      5-min Rain = 0
KAM2 131353Z 20003KT M09/M12 A3029 RMK A01 T10891123  RH  076%=      5-min Rain = 0
KAM2 131354Z 21002KT M09/M12 A3029 RMK A01 T10881123  RH  076%=      5-min Rain = 0
KAM2 131355Z 22002KT M09/M12 A3029 RMK A01 T10871123  RH  075%=      5-min Rain = 0
KAM2 131356Z 24002KT M09/M12 A3029 RMK A01 T10871122  RH  076%=      5-min Rain = 0
KAM2 131357Z 24003KT M09/M12 A3029 RMK A01 T10861122  RH  075%=      5-min Rain = 0
KAM2 131358Z 24002KT M09/M12 A3029 RMK A01 T10851121  RH  075%=      5-min Rain = 0
KAM2 131359Z 32001KT M08/M12 A3029 RMK A01 T10841120  RH  075%=      5-min Rain = 0
KAM2 131400Z 25001KT M08/M12 A3029 RMK A01 T10831120  RH  075%=      5-min Rain = 0
KAM2 131401Z 26000KT M08/M12 A303 RMK A01 T10831120  RH  075%=      5-min Rain = 0
KAM2 131402Z 00000KT M08/M12 A303 RMK A01 T10831120  RH  075%=      5-min Rain = 0
KAM2 131403Z 00000KT M08/M12 A303 RMK A01 T10831120  RH  075%=      5-min Rain = 0
KAM2 131404Z 20001KT M08/M12 A3029 RMK A01 T10831120  RH  075%=      5-min Rain = 0
KAM2 131405Z 17002KT M08/M12 A3029 RMK A01 T10821119  RH  075%=      5-min Rain = 0
KAM2 131406Z 17002KT M08/M12 A3029 RMK A01 T10811118  RH  075%=      5-min Rain = 0
KAM2 131407Z 17003KT M08/M12 A3029 RMK A01 T10791117  RH  075%=      5-min Rain = 0
KAM2 131408Z 16004KT M08/M12 A3029 RMK A01 T10781115  RH  074%=      5-min Rain = 0
KAM2 131409Z 16003KT M08/M11 A3029 RMK A01 T10761114  RH  074%=      5-min Rain = 0
KAM2 131410Z 16003KT M07/M11 A3029 RMK A01 T10731112  RH  074%=      5-min Rain = 0
KAM2 131411Z 17003KT M07/M11 A3029 RMK A01 T10721111  RH  074%=      5-min Rain = 0
KAM2 131412Z 17003KT M07/M11 A3029 RMK A01 T10711112  RH  073%=      5-min Rain = 0
KAM2 131413Z 18003KT M07/M11 A3029 RMK A01 T10711113  RH  072%=      5-min Rain = 0
KAM2 131414Z 18003KT M07/M11 A3029 RMK A01 T10711114  RH  071%=      5-min Rain = 0
KAM2 131415Z 18003KT M07/M12 A3029 RMK A01 T10711116  RH  071%=      5-min Rain = 0
KAM2 131416Z 19002KT M07/M12 A3029 RMK A01 T10721116  RH  071%=      5-min Rain = 0
KAM2 131417Z 19002KT M07/M12 A3029 RMK A01 T10721116  RH  071%=      5-min Rain = 0
KAM2 131418Z 20001KT M07/M12 A303 RMK A01 T10721115  RH  071%=      5-min Rain = 0
KAM2 131419Z 21001KT M07/M12 A303 RMK A01 T10721115  RH  071%=      5-min Rain = 0
KAM2 131420Z 21001KT M07/M12 A303 RMK A01 T10721115  RH  071%=      5-min Rain = 0
KAM2 131421Z 00000KT M07/M11 A303 RMK A01 T10711114  RH  071%=      5-min Rain = 0
KAM2 131422Z 00000KT M07/M11 A303 RMK A01 T10711114  RH  071%=      5-min Rain = 0
KAM2 131423Z 00000KT M07/M12 A303 RMK A01 T10721115  RH  071%=      5-min Rain = 0
KAM2 131424Z 21000KT M07/M11 A303 RMK A01 T10721114  RH  072%=      5-min Rain = 0
KAM2 131425Z 18000KT M07/M11 A303 RMK A01 T10721114  RH  072%=      5-min Rain = 0
KAM2 131426Z 17002KT M07/M11 A303 RMK A01 T10721114  RH  072%=      5-min Rain = 0
KAM2 131427Z 17002KT M07/M11 A303 RMK A01 T10711114  RH  072%=      5-min Rain = 0
KAM2 131428Z 17002KT M07/M11 A303 RMK A01 T10711113  RH  072%=      5-min Rain = 0
KAM2 131429Z 17002KT M07/M11 A303 RMK A01 T10701113  RH  072%=      5-min Rain = 0
KAM2 131430Z 19001KT M07/M11 A303 RMK A01 T10701113  RH  071%=      5-min Rain = 0
KAM2 131431Z 19001KT M07/M11 A303 RMK A01 T10691113  RH  071%=      5-min Rain = 0
KAM2 131432Z 19001KT M07/M11 A303 RMK A01 T10681113  RH  071%=      5-min Rain = 0
KAM2 131433Z 18002KT M07/M11 A303 RMK A01 T10671113  RH  070%=      5-min Rain = 0
KAM2 131434Z 18002KT M07/M11 A303 RMK A01 T10661112  RH  070%=      5-min Rain = 0
KAM2 131435Z 17002KT M07/M11 A303 RMK A01 T10661112  RH  070%=      5-min Rain = 0
KAM2 131436Z 17003KT M07/M11 A303 RMK A01 T10651111  RH  070%=      5-min Rain = 0
KAM2 131437Z 17002KT M06/M11 A303 RMK A01 T10641110  RH  070%=      5-min Rain = 0
KAM2 131438Z 17002KT M06/M11 A303 RMK A01 T10621109  RH  069%=      5-min Rain = 0
KAM2 131439Z 18002KT M06/M11 A303 RMK A01 T10611109  RH  069%=      5-min Rain = 0
KAM2 131440Z 18001KT M06/M11 A303 RMK A01 T10601109  RH  068%=      5-min Rain = 0
KAM2 131441Z 18001KT M06/M11 A303 RMK A01 T10591109  RH  068%=      5-min Rain = 0
KAM2 131442Z 17001KT M06/M11 A303 RMK A01 T10581109  RH  067%=      5-min Rain = 0
KAM2 131443Z 16001KT M06/M11 A303 RMK A01 T10581109  RH  067%=      5-min Rain = 0
KAM2 131444Z 13001KT M06/M11 A303 RMK A01 T10561108  RH  067%=      5-min Rain = 0
KAM2 131445Z 13000KT M06/M11 A303 RMK A01 T10551107  RH  067%=      5-min Rain = 0
KAM2 131446Z 13000KT M05/M11 A303 RMK A01 T10531106  RH  067%=      5-min Rain = 0
KAM2 131447Z 10000KT M05/M11 A303 RMK A01 T10521105  RH  066%=      5-min Rain = 0
KAM2 131448Z 05001KT M05/M11 A303 RMK A01 T10511106  RH  066%=      5-min Rain = 0
KAM2 131449Z 05001KT M05/M11 A303 RMK A01 T10511106  RH  065%=      5-min Rain = 0
KAM2 131450Z 04001KT M05/M11 A303 RMK A01 T10511107  RH  065%=      5-min Rain = 0
KAM2 131451Z 03000KT M05/M11 A303 RMK A01 T10511106  RH  065%=      5-min Rain = 0
KAM2 131452Z 00000KT M05/M11 A303 RMK A01 T10511106  RH  065%=      5-min Rain = 0
KAM2 131453Z 00000KT M05/M11 A303 RMK A01 T10491105  RH  065%=      5-min Rain = 0
KAM2 131454Z 00000KT M05/M10 A303 RMK A01 T10481104  RH  065%=      5-min Rain = 0
KAM2 131455Z 00000KT M05/M10 A303 RMK A01 T10461103  RH  065%=      5-min Rain = 0
KAM2 131456Z 02000KT M04/M10 A303 RMK A01 T10441101  RH  064%=      5-min Rain = 0
KAM2 131457Z 20000KT M04/M10 A303 RMK A01 T10421100  RH  064%=      5-min Rain = 0
KAM2 131458Z 21000KT M04/M10 A303 RMK A01 T10411100  RH  064%=      5-min Rain = 0
KAM2 131459Z 21001KT M04/M10 A303 RMK A01 T10401099  RH  064%=      5-min Rain = 0
KAM2 131500Z 20001KT M04/M10 A303 RMK A01 T10401099  RH  064%=      5-min Rain = 0
KAM2 131501Z 20001KT M04/M10 A303 RMK A01 T10401098  RH  064%=      5-min Rain = 0
KAM2 131502Z 20000KT M04/M10 A3031 RMK A01 T10391098  RH  064%=      5-min Rain = 0
KAM2 131503Z 25000KT M04/M10 A3031 RMK A01 T10381097  RH  063%=      5-min Rain = 0
KAM2 131504Z 25001KT M04/M10 A3031 RMK A01 T10371097  RH  063%=      5-min Rain = 0
KAM2 131505Z 00000KT M04/M10 A3031 RMK A01 T10371096  RH  063%=      5-min Rain = 0
KAM2 131506Z 30000KT M04/M10 A3031 RMK A01 T10361095  RH  063%=      5-min Rain = 0
KAM2 131507Z 32001KT M04/M10 A3031 RMK A01 T10351095  RH  063%=      5-min Rain = 0
KAM2 131508Z 34001KT M04/M10 A3031 RMK A01 T10351097  RH  062%=      5-min Rain = 0
KAM2 131509Z 05000KT M04/M10 A3031 RMK A01 T10351098  RH  061%=      5-min Rain = 0
KAM2 131510Z 09001KT M04/M10 A3031 RMK A01 T10351098  RH  061%=      5-min Rain = 0
KAM2 131511Z 09001KT M04/M10 A3031 RMK A01 T10351098  RH  061%=      5-min Rain = 0
KAM2 131512Z 14001KT M03/M10 A3031 RMK A01 T10341098  RH  061%=      5-min Rain = 0
KAM2 131513Z 15000KT M03/M10 A3031 RMK A01 T10331096  RH  062%=      5-min Rain = 0
KAM2 131514Z 00000KT M03/M09 A3031 RMK A01 T10311092  RH  063%=      5-min Rain = 0
KAM2 131515Z 35000KT M03/M09 A3031 RMK A01 T10301093  RH  062%=      5-min Rain = 0
KAM2 131516Z 36001KT M03/M10 A3031 RMK A01 T10301095  RH  061%=      5-min Rain = 0
KAM2 131517Z 35001KT M03/M10 A3031 RMK A01 T10301096  RH  060%=      5-min Rain = 0
KAM2 131518Z 35001KT M03/M10 A3031 RMK A01 T10291096  RH  060%=      5-min Rain = 0
KAM2 131519Z 36001KT M03/M10 A3031 RMK A01 T10291096  RH  060%=      5-min Rain = 0
KAM2 131520Z 34000KT M03/M10 A3031 RMK A01 T10291095  RH  060%=      5-min Rain = 0
KAM2 131521Z 34000KT M03/M09 A3031 RMK A01 T10281094  RH  060%=      5-min Rain = 0
KAM2 131522Z 00000KT M03/M09 A3031 RMK A01 T10271093  RH  060%=      5-min Rain = 0
KAM2 131523Z 33001KT M03/M09 A3031 RMK A01 T10261093  RH  060%=      5-min Rain = 0
KAM2 131524Z 34000KT M03/M09 A3031 RMK A01 T10251092  RH  060%=      5-min Rain = 0
KAM2 131525Z 03000KT M02/M09 A3031 RMK A01 T10241090  RH  060%=      5-min Rain = 0
KAM2 131526Z 32000KT M02/M09 A3031 RMK A01 T10221090  RH  060%=      5-min Rain = 0
KAM2 131527Z 18000KT M02/M09 A3031 RMK A01 T10221089  RH  060%=      5-min Rain = 0
KAM2 131528Z 20001KT M02/M09 A3031 RMK A01 T10191087  RH  060%=      5-min Rain = 0
KAM2 131529Z 18002KT M02/M08 A3031 RMK A01 T10171082  RH  061%=      5-min Rain = 0
KAM2 131530Z 16001KT M02/M08 A3031 RMK A01 T10151080  RH  061%=      5-min Rain = 0
KAM2 131531Z 19002KT M01/M08 A3031 RMK A01 T10131079  RH  060%=      5-min Rain = 0
KAM2 131532Z 19002KT M01/M08 A3031 RMK A01 T10111079  RH  060%=      5-min Rain = 0
KAM2 131533Z 22001KT M01/M08 A3031 RMK A01 T10111078  RH  060%=      5-min Rain = 0
KAM2 131534Z 20003KT M01/M08 A3031 RMK A01 T10101077  RH  060%=      5-min Rain = 0
KAM2 131535Z 19004KT M01/M08 A3031 RMK A01 T10091076  RH  061%=      5-min Rain = 0
KAM2 131536Z 18003KT M01/M08 A3031 RMK A01 T10111076  RH  061%=      5-min Rain = 0
KAM2 131537Z 17003KT M01/M08 A3031 RMK A01 T10111075  RH  062%=      5-min Rain = 0
KAM2 131538Z 18004KT M01/M08 A3031 RMK A01 T10111075  RH  062%=      5-min Rain = 0
KAM2 131539Z 19004KT M01/M08 A3031 RMK A01 T10101075  RH  061%=      5-min Rain = 0
KAM2 131540Z 21003KT M01/M07 A3031 RMK A01 T10091074  RH  061%=      5-min Rain = 0
KAM2 131541Z 20004KT M01/M07 A3031 RMK A01 T10071073  RH  061%=      5-min Rain = 0
KAM2 131542Z 18004KT M01/M07 A3031 RMK A01 T10061074  RH  060%=      5-min Rain = 0
KAM2 131543Z 19005KT M01/M07 A3031 RMK A01 T10061073  RH  061%=      5-min Rain = 0
KAM2 131544Z 19004KT M01/M07 A3031 RMK A01 T10061073  RH  061%=      5-min Rain = 0
KAM2 131545Z 19005KT M01/M07 A3031 RMK A01 T10051071  RH  061%=      5-min Rain = 0
KAM2 131546Z 17006KT M00/M07 A3031 RMK A01 T10031069  RH  061%=      5-min Rain = 0
KAM2 131547Z 18006KT M00/M07 A3031 RMK A01 T10011067  RH  061%=      5-min Rain = 0
KAM2 131548Z 18007KT 00/M07 A3031 RMK A01 T00011067  RH  060%=      5-min Rain = 0
KAM2 131549Z 19007KT 00/M07 A3031 RMK A01 T00021066  RH  060%=      5-min Rain = 0
KAM2 131550Z 18009KT 00/M06 A3031 RMK A01 T00041063  RH  061%=      5-min Rain = 0
KAM2 131551Z 19008KT 01/M06 A3031 RMK A01 T00061061  RH  061%=      5-min Rain = 0
KAM2 131552Z 18008KT 01/M06 A3031 RMK A01 T00081061  RH  060%=      5-min Rain = 0
KAM2 131553Z 18010KT 01/M06 A3031 RMK A01 T00091061  RH  059%=      5-min Rain = 0
KAM2 131554Z 18011KT 01/M06 A3031 RMK A01 T00091062  RH  059%=      5-min Rain = 0
KAM2 131555Z 19009KT 01/M06 A3031 RMK A01 T00081063  RH  059%=      5-min Rain = 0
KAM2 131556Z 18010KT 01/M06 A3031 RMK A01 T00081062  RH  059%=      5-min Rain = 0
KAM2 131557Z 19009KT 01/M06 A3031 RMK A01 T00091062  RH  059%=      5-min Rain = 0
KAM2 131558Z 19010KT 01/M06 A3031 RMK A01 T00101062  RH  059%=      5-min Rain = 0
KAM2 131559Z 19008KT 01/M06 A3031 RMK A01 T00111061  RH  058%=      5-min Rain = 0
KAM2 131600Z 18009KT 01/M06 A303 RMK A01 T00121061  RH  058%=      5-min Rain = 0
KAM2 131601Z 18009KT 01/M06 A3031 RMK A01 T00131061  RH  058%=      5-min Rain = 0
KAM2 131602Z 19009KT 01/M06 A3031 RMK A01 T00121062  RH  058%=      5-min Rain = 0
KAM2 131603Z 19009KT 01/M06 A3031 RMK A01 T00111063  RH  058%=      5-min Rain = 0
KAM2 131604Z 19009KT 01/M06 A3031 RMK A01 T00111063  RH  058%=      5-min Rain = 0
KAM2 131605Z 18007KT 01/M06 A3031 RMK A01 T00111063  RH  058%=      5-min Rain = 0
KAM2 131606Z 18008KT 01/M06 A3031 RMK A01 T00111063  RH  058%=      5-min Rain = 0
KAM2 131607Z 18008KT 01/M06 A3031 RMK A01 T00101062  RH  058%=      5-min Rain = 0
KAM2 131608Z 18008KT 01/M06 A3031 RMK A01 T00121062  RH  058%=      5-min Rain = 0
KAM2 131609Z 19008KT 01/M06 A3031 RMK A01 T00131062  RH  058%=      5-min Rain = 0
KAM2 131610Z 18008KT 01/M06 A3031 RMK A01 T00141062  RH  057%=      5-min Rain = 0
KAM2 131611Z 17008KT 01/M06 A3031 RMK A01 T00141062  RH  057%=      5-min Rain = 0
KAM2 131612Z 18009KT 01/M06 A3031 RMK A01 T00141062  RH  057%=      5-min Rain = 0
KAM2 131613Z 18007KT 02/M06 A3031 RMK A01 T00161061  RH  057%=      5-min Rain = 0
KAM2 131614Z 18009KT 02/M06 A3031 RMK A01 T00181061  RH  056%=      5-min Rain = 0
KAM2 131615Z 17008KT 02/M06 A3031 RMK A01 T00191060  RH  056%=      5-min Rain = 0
KAM2 131616Z 17008KT 02/M06 A3031 RMK A01 T00201061  RH  055%=      5-min Rain = 0
KAM2 131617Z 16008KT 02/M06 A3031 RMK A01 T00201061  RH  055%=      5-min Rain = 0
KAM2 131618Z 17009KT 02/M06 A3031 RMK A01 T00211061  RH  054%=      5-min Rain = 0
KAM2 131619Z 17009KT 02/M06 A3031 RMK A01 T00211062  RH  054%=      5-min Rain = 0
KAM2 131620Z 17010KT 02/M06 A3031 RMK A01 T00201062  RH  055%=      5-min Rain = 0
KAM2 131621Z 17009KT 02/M06 A3031 RMK A01 T00201063  RH  054%=      5-min Rain = 0
KAM2 131622Z 17009KT 02/M06 A3031 RMK A01 T00211062  RH  054%=      5-min Rain = 0
KAM2 131623Z 17011KT 02/M06 A3031 RMK A01 T00241061  RH  054%=      5-min Rain = 0
KAM2 131624Z 17010KT 03/M06 A3031 RMK A01 T00261061  RH  053%=      5-min Rain = 0
KAM2 131625Z 18010KT 03/M06 A3031 RMK A01 T00271061  RH  052%=      5-min Rain = 0
KAM2 131626Z 18007KT 03/M06 A3031 RMK A01 T00271062  RH  052%=      5-min Rain = 0
KAM2 131627Z 18006KT 03/M06 A3031 RMK A01 T00261062  RH  052%=      5-min Rain = 0
KAM2 131628Z 18007KT 03/M06 A3031 RMK A01 T00271061  RH  052%=      5-min Rain = 0
KAM2 131629Z 17010KT 03/M06 A3031 RMK A01 T00291061  RH  052%=      5-min Rain = 0
KAM2 131630Z 17010KT 03/M06 A3031 RMK A01 T00301062  RH  051%=      5-min Rain = 0
KAM2 131631Z 18010KT 03/M06 A3031 RMK A01 T00301062  RH  051%=      5-min Rain = 0
KAM2 131632Z 18013KT 03/M06 A3031 RMK A01 T00311061  RH  051%=      5-min Rain = 0
KAM2 131633Z 18011KT 03/M06 A3031 RMK A01 T00301063  RH  051%=      5-min Rain = 0
KAM2 131634Z 18010KT 03/M06 A3031 RMK A01 T00281063  RH  051%=      5-min Rain = 0
KAM2 131635Z 18010KT 03/M06 A3031 RMK A01 T00291061  RH  052%=      5-min Rain = 0
KAM2 131636Z 18010KT 03/M06 A3031 RMK A01 T00321060  RH  051%=      5-min Rain = 0
KAM2 131637Z 19009KT 03/M06 A3031 RMK A01 T00331060  RH  050%=      5-min Rain = 0
KAM2 131638Z 17007KT 03/M06 A3031 RMK A01 T00331061  RH  050%=      5-min Rain = 0
KAM2 131639Z 20009KT 03/M06 A3031 RMK A01 T00341060  RH  050%=      5-min Rain = 0
KAM2 131640Z 21010KT 03/M06 A3031 RMK A01 T00341060  RH  050%=      5-min Rain = 0
KAM2 131641Z 20009KT 03/M06 A3031 RMK A01 T00341060  RH  050%=      5-min Rain = 0
KAM2 131642Z 19007KT 03/M06 A3031 RMK A01 T00331060  RH  050%=      5-min Rain = 0
KAM2 131643Z 18009KT 04/M06 A3031 RMK A01 T00351059  RH  050%=      5-min Rain = 0
KAM2 131644Z 18011KT 04/M06 A3031 RMK A01 T00371060  RH  049%=      5-min Rain = 0
KAM2 131645Z 19008KT 04/M06 A3031 RMK A01 T00371060  RH  049%=      5-min Rain = 0
KAM2 131646Z 18009KT 04/M06 A3031 RMK A01 T00381059  RH  049%=      5-min Rain = 0
KAM2 131647Z 19010KT 04/M06 A3031 RMK A01 T00391059  RH  049%=      5-min Rain = 0
KAM2 131648Z 18010KT 04/M06 A3031 RMK A01 T00391059  RH  049%=      5-min Rain = 0
KAM2 131649Z 19012KT 04/M06 A3031 RMK A01 T00391059  RH  049%=      5-min Rain = 0
KAM2 131650Z 20011KT 04/M06 A3031 RMK A01 T00381059  RH  049%=      5-min Rain = 0
KAM2 131651Z 20009KT 04/M06 A3031 RMK A01 T00381058  RH  050%=      5-min Rain = 0
KAM2 131652Z 19008KT 04/M06 A3031 RMK A01 T00391057  RH  049%=      5-min Rain = 0
KAM2 131653Z 19008KT 04/M05 A3031 RMK A01 T00441054  RH  049%=      5-min Rain = 0
KAM2 131654Z 19010KT 05/M05 A3031 RMK A01 T00481053  RH  048%=      5-min Rain = 0
KAM2 131655Z 19009KT 05/M05 A3031 RMK A01 T00491054  RH  047%=      5-min Rain = 0
KAM2 131656Z 19010KT 05/M06 A3031 RMK A01 T00481056  RH  047%=      5-min Rain = 0
KAM2 131657Z 19009KT 05/M06 A3031 RMK A01 T00471056  RH  047%=      5-min Rain = 0
KAM2 131658Z 17009KT 05/M05 A3031 RMK A01 T00481054  RH  048%=      5-min Rain = 0
KAM2 131659Z 19011KT 05/M05 A3031 RMK A01 T00511053  RH  047%=      5-min Rain = 0
KAM2 131700Z 19012KT 05/M06 A3031 RMK A01 T00511055  RH  046%=      5-min Rain = 0
KAM2 131701Z 19010KT 05/M06 A3031 RMK A01 T00491055  RH  047%=      5-min Rain = 0
KAM2 131702Z 20009KT 05/M06 A3031 RMK A01 T00491055  RH  047%=      5-min Rain = 0
KAM2 131703Z 18009KT 05/M05 A3031 RMK A01 T00491054  RH  047%=      5-min Rain = 0
KAM2 131704Z 17011KT 05/M06 A303 RMK A01 T00511055  RH  047%=      5-min Rain = 0
KAM2 131705Z 18011KT 05/M06 A303 RMK A01 T00511055  RH  046%=      5-min Rain = 0
KAM2 131706Z 20011KT 05/M05 A303 RMK A01 T00511053  RH  047%=      5-min Rain = 0
KAM2 131707Z 21010KT 05/M05 A303 RMK A01 T00521050  RH  048%=      5-min Rain = 0
KAM2 131708Z 19009KT 05/M05 A303 RMK A01 T00521050  RH  047%=      5-min Rain = 0
KAM2 131709Z 19008KT 05/M05 A303 RMK A01 T00541050  RH  047%=      5-min Rain = 0
KAM2 131710Z 19009KT 06/M05 A303 RMK A01 T00571049  RH  046%=      5-min Rain = 0
KAM2 131711Z 19010KT 06/M05 A303 RMK A01 T00581050  RH  046%=      5-min Rain = 0
KAM2 131712Z 19011KT 06/M05 A303 RMK A01 T00561053  RH  045%=      5-min Rain = 0
KAM2 131713Z 17009KT 05/M05 A303 RMK A01 T00541053  RH  046%=      5-min Rain = 0
KAM2 131714Z 16012KT 06/M05 A303 RMK A01 T00551052  RH  046%=      5-min Rain = 0
KAM2 131715Z 19010KT 06/M05 A303 RMK A01 T00561052  RH  046%=      5-min Rain = 0
KAM2 131716Z 19009KT 06/M05 A303 RMK A01 T00571051  RH  046%=      5-min Rain = 0
KAM2 131717Z 19012KT 06/M05 A303 RMK A01 T00591050  RH  046%=      5-min Rain = 0
KAM2 131718Z 19010KT 06/M05 A303 RMK A01 T00581049  RH  046%=      5-min Rain = 0
KAM2 131719Z 18011KT 06/M05 A303 RMK A01 T00571049  RH  046%=      5-min Rain = 0
KAM2 131720Z 18013KT 06/M05 A303 RMK A01 T00571050  RH  046%=      5-min Rain = 0
KAM2 131721Z 18012KT 06/M05 A3029 RMK A01 T00561051  RH  046%=      5-min Rain = 0
KAM2 131722Z 18010G15KT 06/M05 A3029 RMK A01 T00571050  RH  046%=      5-min Rain = 0
KAM2 131723Z 18012KT 06/M05 A303 RMK A01 T00601048  RH  046%=      5-min Rain = 0
KAM2 131724Z 18010KT 06/M05 A303 RMK A01 T00611048  RH  045%=      5-min Rain = 0
KAM2 131725Z 19012KT 06/M05 A303 RMK A01 T00621048  RH  045%=      5-min Rain = 0
KAM2 131726Z 18010KT 06/M05 A303 RMK A01 T00601049  RH  045%=      5-min Rain = 0
KAM2 131727Z 19010KT 06/M05 A303 RMK A01 T00601049  RH  045%=      5-min Rain = 0
KAM2 131728Z 18007KT 06/M05 A3029 RMK A01 T00611048  RH  045%=      5-min Rain = 0
KAM2 131729Z 19009KT 06/M05 A3029 RMK A01 T00631047  RH  045%=      5-min Rain = 0
KAM2 131730Z 19012KT 07/M05 A3029 RMK A01 T00651047  RH  045%=      5-min Rain = 0
KAM2 131731Z 17011KT 06/M05 A3029 RMK A01 T00641048  RH  045%=      5-min Rain = 0
KAM2 131732Z 19010KT 06/M05 A3029 RMK A01 T00641047  RH  045%=      5-min Rain = 0
KAM2 131733Z 19011KT 07/M05 A3029 RMK A01 T00651047  RH  044%=      5-min Rain = 0
KAM2 131734Z 19011KT 07/M05 A3029 RMK A01 T00651047  RH  044%=      5-min Rain = 0
KAM2 131735Z 21008KT 07/M05 A3029 RMK A01 T00651047  RH  045%=      5-min Rain = 0
KAM2 131736Z 18009KT 07/M05 A3029 RMK A01 T00661046  RH  045%=      5-min Rain = 0
KAM2 131737Z 17010KT 07/M05 A3029 RMK A01 T00671047  RH  044%=      5-min Rain = 0
KAM2 131738Z 18010KT 07/M05 A3029 RMK A01 T00671046  RH  044%=      5-min Rain = 0
KAM2 131739Z 19009KT 07/M05 A3029 RMK A01 T00671046  RH  044%=      5-min Rain = 0
KAM2 131740Z 18011KT 07/M05 A3029 RMK A01 T00681046  RH  044%=      5-min Rain = 0
KAM2 131741Z 18011KT 07/M05 A3029 RMK A01 T00691047  RH  044%=      5-min Rain = 0
KAM2 131742Z 18012KT 07/M05 A3029 RMK A01 T00701046  RH  044%=      5-min Rain = 0
KAM2 131743Z 17007KT 07/M05 A3029 RMK A01 T00681048  RH  043%=      5-min Rain = 0
KAM2 131744Z 19010KT 07/M05 A3029 RMK A01 T00681045  RH  044%=      5-min Rain = 0
KAM2 131745Z 19009KT 07/M04 A3029 RMK A01 T00741042  RH  043%=      5-min Rain = 0
KAM2 131746Z 20011KT 08/M04 A3029 RMK A01 T00751044  RH  043%=      5-min Rain = 0
KAM2 131747Z 22010KT 08/M04 A3029 RMK A01 T00751043  RH  043%=      5-min Rain = 0
KAM2 131748Z 19011KT 08/M04 A3029 RMK A01 T00751043  RH  043%=      5-min Rain = 0
KAM2 131749Z 18009KT 08/M05 A3029 RMK A01 T00751045  RH  042%=      5-min Rain = 0
KAM2 131750Z 18011KT 07/M05 A3029 RMK A01 T00731046  RH  043%=      5-min Rain = 0
KAM2 131751Z 20010KT 07/M04 A3029 RMK A01 T00741044  RH  043%=      5-min Rain = 0
KAM2 131752Z 19010KT 08/M04 A3028 RMK A01 T00761043  RH  043%=      5-min Rain = 0
KAM2 131753Z 20013KT 08/M04 A3028 RMK A01 T00781043  RH  042%=      5-min Rain = 0
KAM2 131754Z 20008G13KT 08/M05 A3028 RMK A01 T00771045  RH  042%=      5-min Rain = 0
KAM2 131755Z 19007G12KT 08/M05 A3028 RMK A01 T00761045  RH  042%=      5-min Rain = 0
KAM2 131756Z 20009KT 08/M04 A3028 RMK A01 T00801042  RH  042%=      5-min Rain = 0
KAM2 131757Z 19009KT 08/M04 A3028 RMK A01 T00831042  RH  041%=      5-min Rain = 0
KAM2 131758Z 19009KT 08/M04 A3028 RMK A01 T00841043  RH  041%=      5-min Rain = 0
KAM2 131759Z 21012KT 08/M04 A3028 RMK A01 T00831044  RH  040%=      5-min Rain = 0
KAM2 131800Z 21010KT 08/M04 A3028 RMK A01 T00791044  RH  042%=      5-min Rain = 0
KAM2 131801Z 19007G13KT 08/M04 A3028 RMK A01 T00781044  RH  042%=      5-min Rain = 0
KAM2 131802Z 19011KT 08/M04 A3027 RMK A01 T00781044  RH  042%=      5-min Rain = 0
KAM2 131803Z 19007KT 08/M04 A3027 RMK A01 T00791044  RH  041%=      5-min Rain = 0
KAM2 131804Z 20006KT 08/M04 A3028 RMK A01 T00821043  RH  041%=      5-min Rain = 0
KAM2 131805Z 19011KT 09/M04 A3027 RMK A01 T00851042  RH  040%=      5-min Rain = 0
KAM2 131806Z 20010KT 09/M05 A3028 RMK A01 T00851045  RH  040%=      5-min Rain = 0
KAM2 131807Z 19007KT 08/M05 A3028 RMK A01 T00811047  RH  040%=      5-min Rain = 0
KAM2 131808Z 19007KT 08/M05 A3028 RMK A01 T00801046  RH  041%=      5-min Rain = 0
KAM2 131809Z 20011KT 08/M04 A3027 RMK A01 T00821044  RH  041%=      5-min Rain = 0
KAM2 131810Z 18008KT 08/M04 A3027 RMK A01 T00831043  RH  041%=      5-min Rain = 0
KAM2 131811Z 18006KT 08/M04 A3027 RMK A01 T00831043  RH  041%=      5-min Rain = 0
KAM2 131812Z 21008KT 09/M04 A3027 RMK A01 T00861041  RH  040%=      5-min Rain = 0
KAM2 131813Z 21011KT 09/M04 A3027 RMK A01 T00881040  RH  040%=      5-min Rain = 0
KAM2 131814Z 21009KT 09/M04 A3028 RMK A01 T00871041  RH  040%=      5-min Rain = 0
KAM2 131815Z 20012KT 09/M04 A3027 RMK A01 T00871041  RH  040%=      5-min Rain = 0
KAM2 131816Z 20011KT 09/M04 A3028 RMK A01 T00881041  RH  040%=      5-min Rain = 0
KAM2 131817Z 20009KT 09/M04 A3028 RMK A01 T00881042  RH  040%=      5-min Rain = 0
KAM2 131818Z 20010KT 09/M04 A3028 RMK A01 T00871042  RH  040%=      5-min Rain = 0
KAM2 131819Z 19011KT 09/M04 A3028 RMK A01 T00871042  RH  040%=      5-min Rain = 0
KAM2 131820Z 18010KT 09/M04 A3027 RMK A01 T00871041  RH  040%=      5-min Rain = 0
KAM2 131821Z 19008KT 09/M04 A3027 RMK A01 T00861042  RH  040%=      5-min Rain = 0
KAM2 131822Z 19009KT 09/M04 A3027 RMK A01 T00861041  RH  040%=      5-min Rain = 0
KAM2 131823Z 20010KT 09/M04 A3027 RMK A01 T00891040  RH  040%=      5-min Rain = 0
KAM2 131824Z 20010KT 09/M04 A3027 RMK A01 T00911040  RH  040%=      5-min Rain = 0
KAM2 131825Z 21009KT 09/M04 A3027 RMK A01 T00901040  RH  040%=      5-min Rain = 0
KAM2 131826Z 20009KT 09/M04 A3027 RMK A01 T00901040  RH  040%=      5-min Rain = 0
KAM2 131827Z 21007KT 09/M04 A3027 RMK A01 T00911039  RH  040%=      5-min Rain = 0
KAM2 131828Z 21006KT 09/M04 A3027 RMK A01 T00931039  RH  039%=      5-min Rain = 0
KAM2 131829Z 19008G14KT 10/M04 A3027 RMK A01 T00951039  RH  039%=      5-min Rain = 0
KAM2 131830Z 21010KT 10/M04 A3027 RMK A01 T00961038  RH  039%=      5-min Rain = 0
KAM2 131831Z 21010KT 10/M04 A3027 RMK A01 T00981037  RH  038%=      5-min Rain = 0
KAM2 131832Z 21009KT 10/M04 A3027 RMK A01 T00971039  RH  038%=      5-min Rain = 0
KAM2 131833Z 20007KT 09/M04 A3026 RMK A01 T00941040  RH  039%=      5-min Rain = 0
KAM2 131834Z 20008KT 09/M04 A3026 RMK A01 T00941039  RH  039%=      5-min Rain = 0
KAM2 131835Z 19009KT 10/M04 A3026 RMK A01 T00951040  RH  038%=      5-min Rain = 0
KAM2 131836Z 20008KT 10/M04 A3026 RMK A01 T00971040  RH  038%=      5-min Rain = 0
KAM2 131837Z 21011KT 10/M04 A3026 RMK A01 T00961041  RH  038%=      5-min Rain = 0
KAM2 131838Z 19010KT 10/M04 A3026 RMK A01 T00951041  RH  038%=      5-min Rain = 0
KAM2 131839Z 19010KT 10/M04 A3026 RMK A01 T00971039  RH  038%=      5-min Rain = 0
KAM2 131840Z 19010KT 10/M04 A3026 RMK A01 T00981040  RH  038%=      5-min Rain = 0
KAM2 131841Z 19011KT 10/M04 A3026 RMK A01 T00981040  RH  038%=      5-min Rain = 0
KAM2 131842Z 19009KT 10/M04 A3026 RMK A01 T00971040  RH  038%=      5-min Rain = 0
KAM2 131843Z 21009KT 10/M04 A3026 RMK A01 T00991038  RH  038%=      5-min Rain = 0
KAM2 131844Z 20012KT 10/M04 A3026 RMK A01 T01031037  RH  037%=      5-min Rain = 0
KAM2 131845Z 21010KT 10/M04 A3025 RMK A01 T01021039  RH  037%=      5-min Rain = 0
KAM2 131846Z 21009KT 10/M04 A3025 RMK A01 T01011039  RH  037%=      5-min Rain = 0
KAM2 131847Z 20014KT 10/M04 A3025 RMK A01 T01011038  RH  037%=      5-min Rain = 0
KAM2 131848Z 20010G15KT 10/M04 A3025 RMK A01 T01011039  RH  037%=      5-min Rain = 0
KAM2 131849Z 22010KT 10/M04 A3025 RMK A01 T01021038  RH  037%=      5-min Rain = 0
KAM2 131850Z 21006KT 10/M04 A3025 RMK A01 T01011039  RH  037%=      5-min Rain = 0
KAM2 131851Z 20010KT 10/M04 A3025 RMK A01 T01021037  RH  037%=      5-min Rain = 0
KAM2 131852Z 21010KT 11/M04 A3025 RMK A01 T01051037  RH  037%=      5-min Rain = 0
KAM2 131853Z 21012KT 11/M04 A3025 RMK A01 T01051038  RH  036%=      5-min Rain = 0
KAM2 131854Z 20009KT 10/M04 A3025 RMK A01 T01031039  RH  037%=      5-min Rain = 0
KAM2 131855Z 18008KT 10/M04 A3024 RMK A01 T01021038  RH  037%=      5-min Rain = 0
KAM2 131856Z 18009KT 10/M04 A3024 RMK A01 T01041038  RH  037%=      5-min Rain = 0
KAM2 131857Z 19010KT 11/M04 A3024 RMK A01 T01061036  RH  037%=      5-min Rain = 0
KAM2 131858Z 18010KT 11/M04 A3024 RMK A01 T01091036  RH  036%=      5-min Rain = 0
KAM2 131859Z 18011KT 11/M04 A3024 RMK A01 T01101037  RH  036%=      5-min Rain = 0
KAM2 131900Z 20010KT 11/M04 A3024 RMK A01 T01091037  RH  036%=      5-min Rain = 0
KAM2 131901Z 20010KT 11/M04 A3024 RMK A01 T01091037  RH  036%=      5-min Rain = 0
KAM2 131902Z 19007KT 11/M04 A3024 RMK A01 T01071038  RH  036%=      5-min Rain = 0
KAM2 131903Z 19008KT 11/M04 A3024 RMK A01 T01081036  RH  036%=      5-min Rain = 0
KAM2 131904Z 21007KT 11/M04 A3024 RMK A01 T01101036  RH  036%=      5-min Rain = 0
KAM2 131905Z 22010KT 11/M04 A3024 RMK A01 T01141035  RH  035%=      5-min Rain = 0
KAM2 131906Z 20010KT 11/M04 A3024 RMK A01 T01131036  RH  035%=      5-min Rain = 0
KAM2 131907Z 19010KT 11/M04 A3024 RMK A01 T01121036  RH  035%=      5-min Rain = 0
KAM2 131908Z 19011KT 11/M04 A3024 RMK A01 T01131036  RH  035%=      5-min Rain = 0
KAM2 131909Z 18011KT 11/M04 A3024 RMK A01 T01131036  RH  035%=      5-min Rain = 0
KAM2 131910Z 19010KT 11/M04 A3024 RMK A01 T01131037  RH  035%=      5-min Rain = 0
KAM2 131911Z 20011KT 12/M04 A3024 RMK A01 T01151035  RH  035%=      5-min Rain = 0
KAM2 131912Z 22010KT 12/M04 A3023 RMK A01 T01161035  RH  034%=      5-min Rain = 0
KAM2 131913Z 22009KT 12/M04 A3023 RMK A01 T01151037  RH  034%=      5-min Rain = 0
KAM2 131914Z 22009KT 12/M04 A3023 RMK A01 T01151035  RH  035%=      5-min Rain = 0
KAM2 131915Z 22009KT 12/M03 A3023 RMK A01 T01181034  RH  034%=      5-min Rain = 0
KAM2 131916Z 23011KT 12/M03 A3023 RMK A01 T01211034  RH  034%=      5-min Rain = 0
KAM2 131917Z 21011KT 12/M04 A3023 RMK A01 T01181036  RH  034%=      5-min Rain = 0
KAM2 131918Z 21010KT 12/M04 A3023 RMK A01 T01171036  RH  034%=      5-min Rain = 0
KAM2 131919Z 20010KT 12/M04 A3023 RMK A01 T01161036  RH  034%=      5-min Rain = 0
KAM2 131920Z 21011G16KT 12/M04 A3023 RMK A01 T01171035  RH  034%=      5-min Rain = 0
KAM2 131921Z 21008KT 12/M04 A3023 RMK A01 T01171036  RH  034%=      5-min Rain = 0
KAM2 131922Z 20008KT 12/M03 A3023 RMK A01 T01191034  RH  034%=      5-min Rain = 0
KAM2 131923Z 20011KT 12/M03 A3023 RMK A01 T01221034  RH  034%=      5-min Rain = 0
KAM2 131924Z 21010G15KT 12/M03 A3023 RMK A01 T01221034  RH  034%=      5-min Rain = 0
KAM2 131925Z 22009KT 12/M04 A3023 RMK A01 T01221035  RH  033%=      5-min Rain = 0
KAM2 131926Z 21008KT 12/M04 A3023 RMK A01 T01211035  RH  034%=      5-min Rain = 0
KAM2 131927Z 20010KT 12/M03 A3023 RMK A01 T01231033  RH  034%=      5-min Rain = 0
KAM2 131928Z 22008KT 13/M03 A3022 RMK A01 T01261033  RH  033%=      5-min Rain = 0
KAM2 131929Z 20010KT 13/M03 A3022 RMK A01 T01281033  RH  033%=      5-min Rain = 0
KAM2 131930Z 20008KT 13/M04 A3022 RMK A01 T01261035  RH  033%=      5-min Rain = 0
KAM2 131931Z 20011KT 13/M03 A3022 RMK A01 T01251034  RH  033%=      5-min Rain = 0
KAM2 131932Z 21009KT 13/M03 A3022 RMK A01 T01281031  RH  033%=      5-min Rain = 0
KAM2 131933Z 19009KT 13/M03 A3022 RMK A01 T01331031  RH  032%=      5-min Rain = 0
KAM2 131934Z 20007KT 13/M04 A3022 RMK A01 T01301035  RH  032%=      5-min Rain = 0
KAM2 131935Z 20010KT 13/M03 A3022 RMK A01 T01281034  RH  032%=      5-min Rain = 0
KAM2 131936Z 20008KT 13/M03 A3022 RMK A01 T01281033  RH  033%=      5-min Rain = 0
KAM2 131937Z 19009KT 13/M03 A3022 RMK A01 T01301031  RH  032%=      5-min Rain = 0
KAM2 131938Z 23010KT 13/M03 A3022 RMK A01 T01331031  RH  032%=      5-min Rain = 0
KAM2 131939Z 23010KT 13/M03 A3022 RMK A01 T01331032  RH  032%=      5-min Rain = 0
KAM2 131940Z 22010KT 13/M03 A3021 RMK A01 T01321032  RH  032%=      5-min Rain = 0
KAM2 131941Z 20012KT 13/M03 A3021 RMK A01 T01331032  RH  032%=      5-min Rain = 0
KAM2 131942Z 22013KT 13/M03 A3021 RMK A01 T01341031  RH  032%=      5-min Rain = 0
KAM2 131943Z 23012KT 13/M03 A3021 RMK A01 T01341032  RH  031%=      5-min Rain = 0
KAM2 131944Z 22010KT 13/M03 A3021 RMK A01 T01311033  RH  032%=      5-min Rain = 0
KAM2 131945Z 21011KT 13/M03 A3021 RMK A01 T01311032  RH  032%=      5-min Rain = 0
KAM2 131946Z 20009KT 13/M03 A3021 RMK A01 T01321031  RH  032%=      5-min Rain = 0
KAM2 131947Z 21010KT 14/M03 A3021 RMK A01 T01361030  RH  032%=      5-min Rain = 0
KAM2 131948Z 21013KT 14/M03 A3021 RMK A01 T01371031  RH  031%=      5-min Rain = 0
KAM2 131949Z 20011KT 14/M03 A3021 RMK A01 T01381031  RH  031%=      5-min Rain = 0
KAM2 131950Z 20010KT 14/M03 A3021 RMK A01 T01381031  RH  031%=      5-min Rain = 0
KAM2 131951Z 19010KT 14/M03 A3021 RMK A01 T01391031  RH  031%=      5-min Rain = 0
KAM2 131952Z 20011KT 14/M03 A3021 RMK A01 T01361032  RH  031%=      5-min Rain = 0
KAM2 131953Z 19012KT 14/M03 A302 RMK A01 T01351032  RH  031%=      5-min Rain = 0
KAM2 131954Z 19010KT 14/M03 A302 RMK A01 T01351031  RH  031%=      5-min Rain = 0
KAM2 131955Z 19014KT 14/M03 A302 RMK A01 T01381031  RH  031%=      5-min Rain = 0
KAM2 131956Z 21011KT 14/M03 A302 RMK A01 T01381032  RH  031%=      5-min Rain = 0
KAM2 131957Z 22010KT 14/M03 A302 RMK A01 T01391031  RH  031%=      5-min Rain = 0
KAM2 131958Z 22007KT 14/M03 A302 RMK A01 T01401031  RH  030%=      5-min Rain = 0
KAM2 131959Z 19007KT 14/M03 A302 RMK A01 T01401031  RH  031%=      5-min Rain = 0
KAM2 132000Z 18010KT 14/M03 A302 RMK A01 T01431030  RH  030%=      5-min Rain = 0
KAM2 132001Z 20013KT 15/M03 A302 RMK A01 T01451030  RH  030%=      5-min Rain = 0
KAM2 132002Z 20011KT 14/M03 A302 RMK A01 T01421033  RH  030%=      5-min Rain = 0
KAM2 132003Z 21013KT 14/M03 A302 RMK A01 T01411032  RH  030%=      5-min Rain = 0
KAM2 132004Z 22009KT 14/M03 A302 RMK A01 T01381034  RH  030%=      5-min Rain = 0
KAM2 132005Z 22008KT 14/M03 A302 RMK A01 T01371033  RH  031%=      5-min Rain = 0
KAM2 132006Z 22009KT 14/M03 A302 RMK A01 T01391031  RH  031%=      5-min Rain = 0
KAM2 132007Z 21009KT 14/M03 A302 RMK A01 T01401032  RH  030%=      5-min Rain = 0
KAM2 132008Z 20012KT 14/M03 A302 RMK A01 T01381033  RH  031%=      5-min Rain = 0
KAM2 132009Z 20012KT 14/M03 A302 RMK A01 T01371032  RH  031%=      5-min Rain = 0
KAM2 132010Z 20009KT 14/M03 A302 RMK A01 T01381031  RH  031%=      5-min Rain = 0
KAM2 132011Z 20010KT 14/M03 A302 RMK A01 T01421030  RH  030%=      5-min Rain = 0
KAM2 132012Z 21007KT 15/M03 A302 RMK A01 T01451030  RH  030%=      5-min Rain = 0
KAM2 132013Z 21008KT 15/M03 A302 RMK A01 T01491029  RH  029%=      5-min Rain = 0
KAM2 132014Z 21011KT 15/M03 A302 RMK A01 T01511029  RH  029%=      5-min Rain = 0
KAM2 132015Z 20009KT 15/M03 A302 RMK A01 T01521030  RH  028%=      5-min Rain = 0
KAM2 132016Z 19009KT 15/M03 A302 RMK A01 T01521030  RH  028%=      5-min Rain = 0
KAM2 132017Z 20010KT 15/M03 A3019 RMK A01 T01511030  RH  028%=      5-min Rain = 0
KAM2 132018Z 20014KT 15/M03 A3019 RMK A01 T01511030  RH  028%=      5-min Rain = 0
KAM2 132019Z 21010KT 15/M03 A3019 RMK A01 T01501031  RH  028%=      5-min Rain = 0
KAM2 132020Z 20010KT 15/M03 A3019 RMK A01 T01491031  RH  029%=      5-min Rain = 0
KAM2 132021Z 22008G14KT 15/M03 A3019 RMK A01 T01511030  RH  029%=      5-min Rain = 0
KAM2 132022Z 21011KT 15/M03 A3019 RMK A01 T01521030  RH  028%=      5-min Rain = 0
KAM2 132023Z 20012KT 15/M03 A3019 RMK A01 T01501031  RH  029%=      5-min Rain = 0
KAM2 132024Z 20010KT 15/M03 A3019 RMK A01 T01501030  RH  029%=      5-min Rain = 0
KAM2 132025Z 20009KT 15/M03 A3019 RMK A01 T01501031  RH  029%=      5-min Rain = 0
KAM2 132026Z 19009KT 15/M03 A3019 RMK A01 T01521029  RH  029%=      5-min Rain = 0
KAM2 132027Z 22003KT 15/M03 A3018 RMK A01 T01541029  RH  028%=      5-min Rain = 0
KAM2 132028Z 20009KT 16/M03 A3018 RMK A01 T01551029  RH  028%=      5-min Rain = 0
KAM2 132029Z 20010KT 15/M03 A3018 RMK A01 T01541030  RH  028%=      5-min Rain = 0
KAM2 132030Z 20007KT 15/M03 A3018 RMK A01 T01521031  RH  028%=      5-min Rain = 0
KAM2 132031Z 19009KT 15/M03 A3018 RMK A01 T01521030  RH  028%=      5-min Rain = 0
KAM2 132032Z 20009KT 15/M03 A3018 RMK A01 T01521030  RH  028%=      5-min Rain = 0
KAM2 132033Z 21008KT 15/M03 A3018 RMK A01 T01521031  RH  028%=      5-min Rain = 0
KAM2 132034Z 20009KT 15/M03 A3018 RMK A01 T01501031  RH  028%=      5-min Rain = 0
KAM2 132035Z 20010KT 15/M03 A3018 RMK A01 T01501031  RH  028%=      5-min Rain = 0
KAM2 132036Z 19010KT 15/M03 A3018 RMK A01 T01501031  RH  029%=      5-min Rain = 0
KAM2 132037Z 19009KT 15/M03 A3018 RMK A01 T01501031  RH  029%=      5-min Rain = 0
KAM2 132038Z 20008KT 15/M03 A3018 RMK A01 T01481032  RH  029%=      5-min Rain = 0
KAM2 132039Z 21009KT 15/M03 A3018 RMK A01 T01481031  RH  029%=      5-min Rain = 0
KAM2 132040Z 20010KT 15/M03 A3018 RMK A01 T01481031  RH  029%=      5-min Rain = 0
KAM2 132041Z 20010KT 15/M03 A3018 RMK A01 T01481031  RH  029%=      5-min Rain = 0
KAM2 132042Z 22008KT 15/M03 A3018 RMK A01 T01491030  RH  029%=      5-min Rain = 0
KAM2 132043Z 20009KT 15/M03 A3018 RMK A01 T01521030  RH  028%=      5-min Rain = 0
KAM2 132044Z 19008KT 15/M03 A3018 RMK A01 T01541029  RH  028%=      5-min Rain = 0
KAM2 132045Z 18006KT 16/M03 A3018 RMK A01 T01551029  RH  028%=      5-min Rain = 0
KAM2 132046Z 17006KT 16/M03 A3018 RMK A01 T01571029  RH  028%=      5-min Rain = 0
KAM2 132047Z 20006KT 16/M03 A3018 RMK A01 T01601027  RH  028%=      5-min Rain = 0
KAM2 132048Z 21007KT 16/M03 A3018 RMK A01 T01641027  RH  027%=      5-min Rain = 0
KAM2 132049Z 21008KT 17/M03 A3018 RMK A01 T01651028  RH  026%=      5-min Rain = 0
KAM2 132050Z 20009KT 16/M03 A3018 RMK A01 T01631029  RH  027%=      5-min Rain = 0
KAM2 132051Z 20007KT 16/M03 A3018 RMK A01 T01621030  RH  027%=      5-min Rain = 0
KAM2 132052Z 21006KT 16/M03 A3018 RMK A01 T01611029  RH  027%=      5-min Rain = 0
KAM2 132053Z 19010KT 16/M03 A3018 RMK A01 T01641029  RH  027%=      5-min Rain = 0
KAM2 132054Z 21010KT 17/M03 A3018 RMK A01 T01651029  RH  026%=      5-min Rain = 0
KAM2 132055Z 21006KT 17/M03 A3018 RMK A01 T01651029  RH  026%=      5-min Rain = 0
KAM2 132056Z 20005KT 17/M03 A3018 RMK A01 T01651029  RH  026%=      5-min Rain = 0
KAM2 132057Z 18007G12KT 17/M03 A3018 RMK A01 T01651028  RH  026%=      5-min Rain = 0
KAM2 132058Z 19010KT 17/M03 A3018 RMK A01 T01661028  RH  026%=      5-min Rain = 0
KAM2 132059Z 19008KT 17/M03 A3018 RMK A01 T01671028  RH  026%=      5-min Rain = 0
KAM2 132100Z 19005KT 17/M03 A3018 RMK A01 T01681029  RH  026%=      5-min Rain = 0
KAM2 132101Z 19008KT 17/M03 A3018 RMK A01 T01661030  RH  026%=      5-min Rain = 0
KAM2 132102Z 18007KT 16/M03 A3018 RMK A01 T01641029  RH  026%=      5-min Rain = 0
KAM2 132103Z 17007KT 16/M03 A3018 RMK A01 T01631028  RH  027%=      5-min Rain = 0
KAM2 132104Z 17006KT 17/M03 A3018 RMK A01 T01661027  RH  027%=      5-min Rain = 0
KAM2 132105Z 18005KT 17/M03 A3018 RMK A01 T01661028  RH  026%=      5-min Rain = 0
KAM2 132106Z 17006KT 16/M03 A3018 RMK A01 T01641029  RH  026%=      5-min Rain = 0
KAM2 132107Z 20008KT 16/M03 A3018 RMK A01 T01641029  RH  027%=      5-min Rain = 0
KAM2 132108Z 18005KT 16/M03 A3018 RMK A01 T01631029  RH  027%=      5-min Rain = 0
KAM2 132109Z 19006KT 16/M03 A3018 RMK A01 T01631030  RH  026%=      5-min Rain = 0
KAM2 132110Z 16008KT 16/M03 A3018 RMK A01 T01621029  RH  027%=      5-min Rain = 0
KAM2 132111Z 16008KT 16/M03 A3018 RMK A01 T01631029  RH  027%=      5-min Rain = 0
KAM2 132112Z 18007KT 17/M03 A3018 RMK A01 T01651028  RH  027%=      5-min Rain = 0
KAM2 132113Z 18006KT 17/M03 A3018 RMK A01 T01671028  RH  026%=      5-min Rain = 0
KAM2 132114Z 18007KT 17/M03 A3018 RMK A01 T01681028  RH  026%=      5-min Rain = 0
KAM2 132115Z 18008KT 17/M03 A3018 RMK A01 T01691028  RH  026%=      5-min Rain = 0
KAM2 132116Z 17008KT 17/M03 A3018 RMK A01 T01711028  RH  026%=      5-min Rain = 0
KAM2 132117Z 18009KT 17/M03 A3018 RMK A01 T01721029  RH  025%=      5-min Rain = 0
KAM2 132118Z 18008KT 17/M03 A3018 RMK A01 T01711029  RH  025%=      5-min Rain = 0
KAM2 132119Z 18009KT 17/M03 A3018 RMK A01 T01711029  RH  025%=      5-min Rain = 0
KAM2 132120Z 19008KT 17/M03 A3018 RMK A01 T01711030  RH  025%=      5-min Rain = 0
KAM2 132121Z 19008KT 17/M03 A3018 RMK A01 T01711031  RH  025%=      5-min Rain = 0
KAM2 132122Z 18007KT 17/M03 A3018 RMK A01 T01701031  RH  025%=      5-min Rain = 0
KAM2 132123Z 18011KT 17/M03 A3018 RMK A01 T01711030  RH  025%=      5-min Rain = 0
KAM2 132124Z 17010KT 17/M03 A3018 RMK A01 T01711030  RH  025%=      5-min Rain = 0
KAM2 132125Z 19011KT 17/M03 A3018 RMK A01 T01731029  RH  025%=      5-min Rain = 0
KAM2 132126Z 17009KT 17/M03 A3018 RMK A01 T01721030  RH  025%=      5-min Rain = 0
KAM2 132127Z 16010KT 17/M03 A3018 RMK A01 T01711030  RH  025%=      5-min Rain = 0
KAM2 132128Z 18010KT 17/M03 A3018 RMK A01 T01721029  RH  025%=      5-min Rain = 0
KAM2 132129Z 18009KT 17/M03 A3018 RMK A01 T01721029  RH  025%=      5-min Rain = 0
KAM2 132130Z 18012KT 17/M03 A3018 RMK A01 T01731028  RH  025%=      5-min Rain = 0
KAM2 132131Z 18013KT 17/M03 A3018 RMK A01 T01731030  RH  025%=      5-min Rain = 0
KAM2 132132Z 20012KT 17/M03 A3018 RMK A01 T01731030  RH  025%=      5-min Rain = 0
KAM2 132133Z 19008KT 17/M03 A3018 RMK A01 T01721031  RH  025%=      5-min Rain = 0
KAM2 132134Z 19012KT 17/M03 A3018 RMK A01 T01721030  RH  025%=      5-min Rain = 0
KAM2 132135Z 19014KT 18/M03 A3018 RMK A01 T01751030  RH  025%=      5-min Rain = 0
KAM2 132136Z 19011KT 18/M03 A3018 RMK A01 T01751031  RH  024%=      5-min Rain = 0
KAM2 132137Z 19010KT 18/M03 A3018 RMK A01 T01751031  RH  024%=      5-min Rain = 0
KAM2 132138Z 19012KT 18/M03 A3018 RMK A01 T01761030  RH  024%=      5-min Rain = 0
KAM2 132139Z 19013KT 18/M03 A3018 RMK A01 T01771029  RH  024%=      5-min Rain = 0
KAM2 132140Z 18010KT 17/M03 A3018 RMK A01 T01741031  RH  024%=      5-min Rain = 0
KAM2 132141Z 18012KT 17/M03 A3018 RMK A01 T01731031  RH  025%=      5-min Rain = 0
KAM2 132142Z 18012KT 17/M03 A3018 RMK A01 T01731031  RH  025%=      5-min Rain = 0
KAM2 132143Z 17009KT 17/M03 A3018 RMK A01 T01731031  RH  025%=      5-min Rain = 0
KAM2 132144Z 17012KT 17/M03 A3018 RMK A01 T01741031  RH  025%=      5-min Rain = 0
KAM2 132145Z 18010KT 17/M03 A3018 RMK A01 T01741031  RH  025%=      5-min Rain = 0
KAM2 132146Z 17011KT 17/M03 A3018 RMK A01 T01721031  RH  025%=      5-min Rain = 0
KAM2 132147Z 17010KT 17/M03 A3017 RMK A01 T01721030  RH  025%=      5-min Rain = 0
KAM2 132148Z 17013KT 17/M03 A3017 RMK A01 T01741029  RH  025%=      5-min Rain = 0
KAM2 132149Z 20013KT 18/M03 A3017 RMK A01 T01751031  RH  024%=      5-min Rain = 0
KAM2 132150Z 19011KT 18/M03 A3017 RMK A01 T01751031  RH  024%=      5-min Rain = 0
KAM2 132151Z 18012KT 18/M03 A3017 RMK A01 T01751030  RH  025%=      5-min Rain = 0
KAM2 132152Z 17011KT 18/M03 A3017 RMK A01 T01751030  RH  024%=      5-min Rain = 0
KAM2 132153Z 18011KT 18/M03 A3017 RMK A01 T01751030  RH  025%=      5-min Rain = 0
KAM2 132154Z 18011KT 18/M03 A3017 RMK A01 T01751030  RH  025%=      5-min Rain = 0
KAM2 132155Z 17012KT 18/M03 A3017 RMK A01 T01751029  RH  025%=      5-min Rain = 0
KAM2 132156Z 15013KT 17/M03 A3017 RMK A01 T01741029  RH  025%=      5-min Rain = 0
KAM2 132157Z 16013KT 17/M03 A3017 RMK A01 T01741029  RH  025%=      5-min Rain = 0
KAM2 132158Z 16012KT 17/M03 A3017 RMK A01 T01741029  RH  025%=      5-min Rain = 0
KAM2 132159Z 16012KT 17/M03 A3017 RMK A01 T01741029  RH  025%=      5-min Rain = 0
KAM2 132200Z 16012KT 17/M03 A3017 RMK A01 T01741029  RH  025%=      5-min Rain = 0
KAM2 132201Z 17013KT 17/M03 A3017 RMK A01 T01741029  RH  025%=      5-min Rain = 0
KAM2 132202Z 17011KT 17/M03 A3017 RMK A01 T01741029  RH  025%=      5-min Rain = 0
KAM2 132203Z 17013KT 17/M03 A3017 RMK A01 T01741028  RH  025%=      5-min Rain = 0
KAM2 132204Z 17010KT 17/M03 A3017 RMK A01 T01741028  RH  025%=      5-min Rain = 0
KAM2 132205Z 16010KT 17/M03 A3017 RMK A01 T01741029  RH  025%=      5-min Rain = 0
KAM2 132206Z 15014KT 17/M03 A3017 RMK A01 T01731029  RH  025%=      5-min Rain = 0
KAM2 132207Z 15013KT 17/M03 A3017 RMK A01 T01741029  RH  025%=      5-min Rain = 0
KAM2 132208Z 16015KT 17/M03 A3017 RMK A01 T01741029  RH  025%=      5-min Rain = 0
KAM2 132209Z 16014KT 17/M03 A3016 RMK A01 T01721030  RH  025%=      5-min Rain = 0
KAM2 132210Z 17012KT 17/M03 A3016 RMK A01 T01721030  RH  025%=      5-min Rain = 0
KAM2 132211Z 16014KT 17/M03 A3016 RMK A01 T01721029  RH  025%=      5-min Rain = 0
KAM2 132212Z 16011KT 17/M03 A3016 RMK A01 T01721029  RH  025%=      5-min Rain = 0
KAM2 132213Z 16014KT 17/M03 A3016 RMK A01 T01731029  RH  025%=      5-min Rain = 0
KAM2 132214Z 16014KT 17/M03 A3017 RMK A01 T01731029  RH  025%=      5-min Rain = 0
KAM2 132215Z 17014KT 17/M03 A3017 RMK A01 T01741028  RH  025%=      5-min Rain = 0
KAM2 132216Z 17013KT 18/M03 A3017 RMK A01 T01751029  RH  025%=      5-min Rain = 0
KAM2 132217Z 17016KT 17/M03 A3016 RMK A01 T01741030  RH  025%=      5-min Rain = 0
KAM2 132218Z 17015KT 17/M03 A3016 RMK A01 T01721030  RH  025%=      5-min Rain = 0
KAM2 132219Z 18012KT 17/M03 A3017 RMK A01 T01711030  RH  025%=      5-min Rain = 0
KAM2 132220Z 17014KT 17/M03 A3016 RMK A01 T01721029  RH  025%=      5-min Rain = 0
KAM2 132221Z 17014KT 17/M03 A3016 RMK A01 T01721029  RH  025%=      5-min Rain = 0
KAM2 132222Z 17013KT 17/M03 A3016 RMK A01 T01731029  RH  025%=      5-min Rain = 0
KAM2 132223Z 16010KT 17/M03 A3016 RMK A01 T01741028  RH  025%=      5-min Rain = 0
KAM2 132224Z 16014KT 18/M03 A3016 RMK A01 T01771027  RH  025%=      5-min Rain = 0
KAM2 132225Z 16013KT 18/M03 A3016 RMK A01 T01771029  RH  025%=      5-min Rain = 0
KAM2 132226Z 17014KT 18/M03 A3016 RMK A01 T01751029  RH  025%=      5-min Rain = 0
KAM2 132227Z 17013KT 18/M03 A3016 RMK A01 T01751029  RH  025%=      5-min Rain = 0
KAM2 132228Z 16014KT 18/M03 A3016 RMK A01 T01751028  RH  025%=      5-min Rain = 0
KAM2 132229Z 17012KT 18/M03 A3016 RMK A01 T01751028  RH  025%=      5-min Rain = 0
KAM2 132230Z 18014KT 18/M03 A3016 RMK A01 T01761028  RH  025%=      5-min Rain = 0
KAM2 132231Z 17012KT 18/M03 A3016 RMK A01 T01761028  RH  025%=      5-min Rain = 0
KAM2 132232Z 16011KT 18/M03 A3016 RMK A01 T01761028  RH  025%=      5-min Rain = 0
KAM2 132233Z 17015KT 18/M03 A3016 RMK A01 T01761028  RH  025%=      5-min Rain = 0
KAM2 132234Z 17014KT 18/M03 A3016 RMK A01 T01751028  RH  025%=      5-min Rain = 0
KAM2 132235Z 16015KT 17/M03 A3016 RMK A01 T01741028  RH  025%=      5-min Rain = 0
KAM2 132236Z 16015KT 17/M03 A3016 RMK A01 T01741027  RH  025%=      5-min Rain = 0
KAM2 132237Z 16013G18KT 17/M03 A3016 RMK A01 T01731027  RH  025%=      5-min Rain = 0
KAM2 132238Z 15011KT 17/M03 A3016 RMK A01 T01721027  RH  026%=      5-min Rain = 0
KAM2 132239Z 17013G18KT 17/M03 A3016 RMK A01 T01721026  RH  026%=      5-min Rain = 0
KAM2 132240Z 17017KT 17/M03 A3016 RMK A01 T01721026  RH  026%=      5-min Rain = 0
KAM2 132241Z 18013KT 17/M03 A3016 RMK A01 T01701027  RH  026%=      5-min Rain = 0
KAM2 132242Z 17014KT 17/M03 A3016 RMK A01 T01701026  RH  026%=      5-min Rain = 0
KAM2 132243Z 17012G19KT 17/M03 A3016 RMK A01 T01711025  RH  026%=      5-min Rain = 0
KAM2 132244Z 17017KT 17/M03 A3016 RMK A01 T01711025  RH  026%=      5-min Rain = 0
KAM2 132245Z 17017KT 17/M03 A3016 RMK A01 T01711025  RH  026%=      5-min Rain = 0
KAM2 132246Z 17017KT 17/M03 A3016 RMK A01 T01701025  RH  026%=      5-min Rain = 0
KAM2 132247Z 17012KT 17/M03 A3016 RMK A01 T01701025  RH  026%=      5-min Rain = 0
KAM2 132248Z 16014KT 17/M03 A3016 RMK A01 T01701025  RH  026%=      5-min Rain = 0
KAM2 132249Z 16014KT 17/M02 A3016 RMK A01 T01711024  RH  026%=      5-min Rain = 0
KAM2 132250Z 16012KT 17/M02 A3016 RMK A01 T01721024  RH  026%=      5-min Rain = 0
KAM2 132251Z 17014KT 17/M02 A3016 RMK A01 T01721024  RH  026%=      5-min Rain = 0
KAM2 132252Z 16015KT 17/M03 A3016 RMK A01 T01721025  RH  026%=      5-min Rain = 0
KAM2 132253Z 18013KT 17/M02 A3016 RMK A01 T01731024  RH  026%=      5-min Rain = 0
KAM2 132254Z 19013KT 17/M02 A3016 RMK A01 T01721024  RH  026%=      5-min Rain = 0
KAM2 132255Z 19015KT 17/M03 A3016 RMK A01 T01721025  RH  026%=      5-min Rain = 0
KAM2 132256Z 18011KT 17/M03 A3016 RMK A01 T01701025  RH  026%=      5-min Rain = 0
KAM2 132257Z 18017KT 17/M03 A3016 RMK A01 T01691025  RH  026%=      5-min Rain = 0
KAM2 132258Z 18016G21KT 17/M03 A3016 RMK A01 T01671026  RH  027%=      5-min Rain = 0
KAM2 132259Z 17017KT 17/M03 A3016 RMK A01 T01651026  RH  027%=      5-min Rain = 0
KAM2 132300Z 17016KT 16/M03 A3016 RMK A01 T01631026  RH  027%=      5-min Rain = 0
KAM2 132301Z 17015KT 16/M03 A3016 RMK A01 T01631026  RH  027%=      5-min Rain = 0
KAM2 132302Z 17019KT 16/M03 A3016 RMK A01 T01621026  RH  027%=      5-min Rain = 0
KAM2 132303Z 18016KT 16/M03 A3016 RMK A01 T01621027  RH  027%=      5-min Rain = 0
KAM2 132304Z 18013KT 16/M03 A3016 RMK A01 T01611026  RH  028%=      5-min Rain = 0
KAM2 132305Z 18014KT 16/M03 A3016 RMK A01 T01611026  RH  028%=      5-min Rain = 0
KAM2 132306Z 17016G21KT 16/M03 A3016 RMK A01 T01601027  RH  028%=      5-min Rain = 0
KAM2 132307Z 18018KT 16/M03 A3016 RMK A01 T01601027  RH  028%=      5-min Rain = 0
KAM2 132308Z 18015G20KT 16/M03 A3016 RMK A01 T01591027  RH  028%=      5-min Rain = 0
KAM2 132309Z 18017KT 16/M03 A3016 RMK A01 T01591028  RH  028%=      5-min Rain = 0
KAM2 132310Z 18017KT 16/M03 A3016 RMK A01 T01591028  RH  028%=      5-min Rain = 0
KAM2 132311Z 17015KT 16/M03 A3016 RMK A01 T01591028  RH  028%=      5-min Rain = 0
KAM2 132312Z 18016KT 16/M03 A3016 RMK A01 T01591028  RH  028%=      5-min Rain = 0
KAM2 132313Z 18017KT 16/M03 A3016 RMK A01 T01591028  RH  028%=      5-min Rain = 0
KAM2 132314Z 17018KT 16/M03 A3016 RMK A01 T01581029  RH  028%=      5-min Rain = 0
KAM2 132315Z 18018KT 16/M03 A3016 RMK A01 T01581029  RH  028%=      5-min Rain = 0
KAM2 132316Z 17018KT 16/M03 A3016 RMK A01 T01571030  RH  028%=      5-min Rain = 0
KAM2 132317Z 17019KT 16/M03 A3016 RMK A01 T01561030  RH  028%=      5-min Rain = 0
KAM2 132318Z 17019KT 16/M03 A3016 RMK A01 T01561030  RH  028%=      5-min Rain = 0
KAM2 132319Z 17016KT 16/M03 A3016 RMK A01 T01561030  RH  028%=      5-min Rain = 0
KAM2 132320Z 17017G22KT 16/M03 A3016 RMK A01 T01561031  RH  028%=      5-min Rain = 0
KAM2 132321Z 17012G17KT 16/M03 A3016 RMK A01 T01561031  RH  027%=      5-min Rain = 0
KAM2 132322Z 18013KT 16/M03 A3016 RMK A01 T01571030  RH  027%=      5-min Rain = 0
KAM2 132323Z 18012G18KT 16/M03 A3016 RMK A01 T01571030  RH  027%=      5-min Rain = 0
KAM2 132324Z 18015KT 16/M03 A3016 RMK A01 T01561031  RH  028%=      5-min Rain = 0
KAM2 132325Z 18015KT 16/M03 A3016 RMK A01 T01561031  RH  028%=      5-min Rain = 0
KAM2 132326Z 17016KT 16/M03 A3016 RMK A01 T01551031  RH  028%=      5-min Rain = 0
KAM2 132327Z 17016G21KT 15/M03 A3016 RMK A01 T01541032  RH  028%=      5-min Rain = 0
KAM2 132328Z 18016KT 15/M03 A3016 RMK A01 T01541032  RH  028%=      5-min Rain = 0
KAM2 132329Z 17016G21KT 15/M03 A3016 RMK A01 T01531033  RH  028%=      5-min Rain = 0
KAM2 132330Z 18018G23KT 15/M03 A3016 RMK A01 T01521033  RH  028%=      5-min Rain = 0
KAM2 132331Z 17017KT 15/M03 A3016 RMK A01 T01521033  RH  028%=      5-min Rain = 0
KAM2 132332Z 18018KT 15/M03 A3016 RMK A01 T01511033  RH  028%=      5-min Rain = 0
KAM2 132333Z 18017KT 15/M03 A3016 RMK A01 T01511033  RH  028%=      5-min Rain = 0
KAM2 132334Z 18016KT 15/M03 A3016 RMK A01 T01511033  RH  028%=      5-min Rain = 0
KAM2 132335Z 18016KT 15/M03 A3016 RMK A01 T01501033  RH  028%=      5-min Rain = 0
KAM2 132336Z 18016G22KT 15/M03 A3016 RMK A01 T01501033  RH  028%=      5-min Rain = 0
KAM2 132337Z 18018KT 15/M03 A3016 RMK A01 T01501033  RH  028%=      5-min Rain = 0
KAM2 132338Z 18018G23KT 15/M03 A3016 RMK A01 T01491034  RH  028%=      5-min Rain = 0
KAM2 132339Z 18016KT 15/M03 A3016 RMK A01 T01491034  RH  028%=      5-min Rain = 0
KAM2 132340Z 18019KT 15/M03 A3016 RMK A01 T01491034  RH  028%=      5-min Rain = 0
KAM2 132341Z 18017KT 15/M03 A3016 RMK A01 T01491034  RH  028%=      5-min Rain = 0
KAM2 132342Z 17018KT 15/M03 A3016 RMK A01 T01481034  RH  028%=      5-min Rain = 0
KAM2 132343Z 18017KT 15/M04 A3016 RMK A01 T01481035  RH  028%=      5-min Rain = 0
KAM2 132344Z 18016KT 15/M03 A3016 RMK A01 T01481034  RH  028%=      5-min Rain = 0
KAM2 132345Z 17014KT 15/M03 A3016 RMK A01 T01481034  RH  028%=      5-min Rain = 0
KAM2 132346Z 18016KT 15/M04 A3016 RMK A01 T01471035  RH  028%=      5-min Rain = 0
KAM2 132347Z 18014KT 15/M04 A3016 RMK A01 T01471035  RH  028%=      5-min Rain = 0
KAM2 132348Z 18016KT 15/M03 A3016 RMK A01 T01471034  RH  028%=      5-min Rain = 0
KAM2 132349Z 18014KT 15/M04 A3016 RMK A01 T01471035  RH  028%=      5-min Rain = 0
KAM2 132350Z 18016KT 15/M04 A3016 RMK A01 T01471035  RH  028%=      5-min Rain = 0
KAM2 132351Z 18015G20KT 15/M04 A3016 RMK A01 T01471035  RH  028%=      5-min Rain = 0
KAM2 132352Z 18015KT 15/M04 A3016 RMK A01 T01471035  RH  028%=      5-min Rain = 0
KAM2 132353Z 18015KT 15/M04 A3016 RMK A01 T01471035  RH  028%=      5-min Rain = 0
KAM2 132354Z 18016KT 15/M04 A3016 RMK A01 T01481035  RH  028%=      5-min Rain = 0
KAM2 132355Z 18017KT 15/M04 A3016 RMK A01 T01481035  RH  028%=      5-min Rain = 0
KAM2 132356Z 18017KT 15/M04 A3016 RMK A01 T01481035  RH  028%=      5-min Rain = 0
KAM2 132357Z 18019KT 15/M04 A3016 RMK A01 T01481035  RH  028%=      5-min Rain = 0
KAM2 132358Z 18018KT 15/M04 A3016 RMK A01 T01481035  RH  028%=      5-min Rain = 0
KAM2 132359Z 18017KT 15/M04 A3016 RMK A01 T01481035  RH  028%=      5-min Rain = 0
KAM2 140000Z 18016KT 15/M04 A3017 RMK A01 T01481035  RH  028%=      5-min Rain = 0
KAM2 140001Z 18015KT 15/M04 A3016 RMK A01 T01481035  RH  028%=      5-min Rain = 0
KAM2 140002Z 18015KT 15/M04 A3016 RMK A01 T01471035  RH  028%=      5-min Rain = 0
KAM2 140003Z 18015KT 15/M04 A3016 RMK A01 T01471035  RH  028%=      5-min Rain = 0
KAM2 140004Z 18015G20KT 15/M04 A3016 RMK A01 T01461035  RH  028%=      5-min Rain = 0
KAM2 140005Z 18013KT 15/M04 A3016 RMK A01 T01461035  RH  028%=      5-min Rain = 0
KAM2 140006Z 18015G20KT 15/M04 A3016 RMK A01 T01451035  RH  029%=      5-min Rain = 0
KAM2 140007Z 18017KT 15/M04 A3016 RMK A01 T01451036  RH  029%=      5-min Rain = 0
KAM2 140008Z 18013KT 15/M04 A3016 RMK A01 T01451035  RH  029%=      5-min Rain = 0
KAM2 140009Z 18016KT 14/M04 A3016 RMK A01 T01441036  RH  029%=      5-min Rain = 0
KAM2 140010Z 18016KT 14/M04 A3016 RMK A01 T01441036  RH  029%=      5-min Rain = 0
KAM2 140011Z 18014KT 14/M04 A3016 RMK A01 T01431036  RH  029%=      5-min Rain = 0
KAM2 140012Z 18014KT 14/M04 A3016 RMK A01 T01431036  RH  029%=      5-min Rain = 0
KAM2 140013Z 18015KT 14/M04 A3016 RMK A01 T01421036  RH  029%=      5-min Rain = 0
KAM2 140014Z 18014KT 14/M04 A3016 RMK A01 T01421036  RH  029%=      5-min Rain = 0
KAM2 140015Z 18015KT 14/M04 A3016 RMK A01 T01411036  RH  029%=      5-min Rain = 0
KAM2 140016Z 18014KT 14/M04 A3016 RMK A01 T01401036  RH  029%=      5-min Rain = 0
KAM2 140017Z 18015KT 14/M04 A3016 RMK A01 T01401036  RH  029%=      5-min Rain = 0
KAM2 140018Z 17014KT 14/M04 A3016 RMK A01 T01401036  RH  029%=      5-min Rain = 0
KAM2 140019Z 17014KT 14/M04 A3016 RMK A01 T01391037  RH  029%=      5-min Rain = 0
KAM2 140020Z 17012G17KT 14/M04 A3016 RMK A01 T01381037  RH  030%=      5-min Rain = 0
KAM2 140021Z 17012KT 14/M04 A3016 RMK A01 T01371037  RH  030%=      5-min Rain = 0
KAM2 140022Z 18013KT 14/M04 A3016 RMK A01 T01361037  RH  030%=      5-min Rain = 0
KAM2 140023Z 17013KT 14/M04 A3016 RMK A01 T01351037  RH  030%=      5-min Rain = 0
KAM2 140024Z 17013KT 14/M04 A3016 RMK A01 T01351037  RH  030%=      5-min Rain = 0
KAM2 140025Z 18015KT 13/M04 A3016 RMK A01 T01341037  RH  030%=      5-min Rain = 0
KAM2 140026Z 18015KT 13/M04 A3017 RMK A01 T01341037  RH  030%=      5-min Rain = 0
KAM2 140027Z 18015G20KT 13/M04 A3017 RMK A01 T01341037  RH  030%=      5-min Rain = 0
KAM2 140028Z 18014KT 13/M04 A3017 RMK A01 T01341036  RH  030%=      5-min Rain = 0
KAM2 140029Z 18016KT 13/M04 A3017 RMK A01 T01341037  RH  030%=      5-min Rain = 0
KAM2 140030Z 18016KT 13/M04 A3016 RMK A01 T01341037  RH  030%=      5-min Rain = 0
KAM2 140031Z 18013G18KT 13/M04 A3016 RMK A01 T01341037  RH  030%=      5-min Rain = 0
KAM2 140032Z 18015KT 13/M04 A3017 RMK A01 T01341037  RH  030%=      5-min Rain = 0
KAM2 140033Z 18014KT 13/M04 A3017 RMK A01 T01341037  RH  030%=      5-min Rain = 0
KAM2 140034Z 18014KT 13/M04 A3017 RMK A01 T01331037  RH  030%=      5-min Rain = 0
KAM2 140035Z 18015KT 13/M04 A3017 RMK A01 T01331037  RH  030%=      5-min Rain = 0
KAM2 140036Z 18013KT 13/M04 A3017 RMK A01 T01321038  RH  031%=      5-min Rain = 0
KAM2 140037Z 18014KT 13/M04 A3017 RMK A01 T01321038  RH  031%=      5-min Rain = 0
KAM2 140038Z 18014KT 13/M04 A3017 RMK A01 T01311038  RH  031%=      5-min Rain = 0
KAM2 140039Z 18014KT 13/M04 A3017 RMK A01 T01311038  RH  031%=      5-min Rain = 0
KAM2 140040Z 18013KT 13/M04 A3017 RMK A01 T01311038  RH  031%=      5-min Rain = 0
KAM2 140041Z 18013KT 13/M04 A3017 RMK A01 T01301038  RH  031%=      5-min Rain = 0
KAM2 140042Z 17012KT 13/M04 A3017 RMK A01 T01291038  RH  031%=      5-min Rain = 0
KAM2 140043Z 18011KT 13/M04 A3017 RMK A01 T01281038  RH  031%=      5-min Rain = 0
KAM2 140044Z 18013KT 13/M04 A3017 RMK A01 T01271038  RH  031%=      5-min Rain = 0
KAM2 140045Z 18011KT 13/M04 A3017 RMK A01 T01261038  RH  032%=      5-min Rain = 0
KAM2 140046Z 18011KT 12/M04 A3017 RMK A01 T01241039  RH  032%=      5-min Rain = 0
KAM2 140047Z 18012KT 12/M04 A3017 RMK A01 T01231039  RH  032%=      5-min Rain = 0
KAM2 140048Z 18011KT 12/M04 A3017 RMK A01 T01221039  RH  032%=      5-min Rain = 0
KAM2 140049Z 18011KT 12/M04 A3017 RMK A01 T01211039  RH  033%=      5-min Rain = 0
KAM2 140050Z 18011KT 12/M04 A3017 RMK A01 T01201038  RH  033%=      5-min Rain = 0
KAM2 140051Z 18012KT 12/M04 A3017 RMK A01 T01201038  RH  033%=      5-min Rain = 0
KAM2 140052Z 18012KT 12/M04 A3017 RMK A01 T01201037  RH  033%=      5-min Rain = 0
KAM2 140053Z 18012KT 12/M04 A3017 RMK A01 T01191038  RH  033%=      5-min Rain = 0
KAM2 140054Z 18011KT 12/M04 A3017 RMK A01 T01191037  RH  033%=      5-min Rain = 0
KAM2 140055Z 17011KT 12/M04 A3017 RMK A01 T01191037  RH  033%=      5-min Rain = 0
KAM2 140056Z 17011KT 12/M04 A3017 RMK A01 T01181038  RH  033%=      5-min Rain = 0
KAM2 140057Z 17012KT 12/M04 A3017 RMK A01 T01171038  RH  034%=      5-min Rain = 0
KAM2 140058Z 17012KT 12/M04 A3017 RMK A01 T01171038  RH  034%=      5-min Rain = 0
KAM2 140059Z 17010KT 12/M04 A3017 RMK A01 T01171037  RH  034%=      5-min Rain = 0
KAM2 140100Z 17010KT 12/M04 A3017 RMK A01 T01171037  RH  034%=      5-min Rain = 0
KAM2 140101Z 17010KT 12/M04 A3017 RMK A01 T01171036  RH  034%=      5-min Rain = 0
KAM2 140102Z 17011KT 12/M04 A3017 RMK A01 T01161035  RH  034%=      5-min Rain = 0
KAM2 140103Z 17010KT 12/M04 A3017 RMK A01 T01161035  RH  035%=      5-min Rain = 0
KAM2 140104Z 17010KT 12/M04 A3017 RMK A01 T01161035  RH  035%=      5-min Rain = 0
KAM2 140105Z 17010KT 12/M03 A3017 RMK A01 T01151034  RH  035%=      5-min Rain = 0
KAM2 140106Z 17010KT 12/M03 A3017 RMK A01 T01151033  RH  035%=      5-min Rain = 0
KAM2 140107Z 18011KT 12/M03 A3018 RMK A01 T01161033  RH  035%=      5-min Rain = 0
KAM2 140108Z 18010KT 12/M03 A3018 RMK A01 T01161032  RH  035%=      5-min Rain = 0
KAM2 140109Z 18010KT 12/M03 A3018 RMK A01 T01171032  RH  035%=      5-min Rain = 0
KAM2 140110Z 18010KT 12/M03 A3018 RMK A01 T01161032  RH  035%=      5-min Rain = 0
KAM2 140111Z 18010KT 12/M03 A3018 RMK A01 T01161032  RH  036%=      5-min Rain = 0
KAM2 140112Z 18010KT 12/M03 A3018 RMK A01 T01151031  RH  036%=      5-min Rain = 0
KAM2 140113Z 18011KT 12/M03 A3018 RMK A01 T01151031  RH  036%=      5-min Rain = 0
KAM2 140114Z 17011KT 12/M03 A3018 RMK A01 T01151031  RH  036%=      5-min Rain = 0
KAM2 140115Z 17011KT 12/M03 A3018 RMK A01 T01151031  RH  036%=      5-min Rain = 0
KAM2 140116Z 17011KT 12/M03 A3018 RMK A01 T01151031  RH  036%=      5-min Rain = 0
KAM2 140117Z 17012KT 12/M03 A3018 RMK A01 T01151031  RH  036%=      5-min Rain = 0
KAM2 140118Z 17012KT 12/M03 A3018 RMK A01 T01151030  RH  036%=      5-min Rain = 0
KAM2 140119Z 17012KT 11/M03 A3018 RMK A01 T01141031  RH  036%=      5-min Rain = 0
KAM2 140120Z 17013KT 11/M03 A3018 RMK A01 T01141031  RH  036%=      5-min Rain = 0
KAM2 140121Z 17013KT 11/M03 A3018 RMK A01 T01131031  RH  036%=      5-min Rain = 0
KAM2 140122Z 17013KT 11/M03 A3018 RMK A01 T01131031  RH  036%=      5-min Rain = 0
KAM2 140123Z 17012KT 11/M03 A3018 RMK A01 T01131031  RH  037%=      5-min Rain = 0
KAM2 140124Z 17011KT 11/M03 A3018 RMK A01 T01121031  RH  037%=      5-min Rain = 0
KAM2 140125Z 17012KT 11/M03 A3018 RMK A01 T01131030  RH  037%=      5-min Rain = 0
KAM2 140126Z 17012KT 11/M03 A3018 RMK A01 T01121031  RH  037%=      5-min Rain = 0
KAM2 140127Z 17011KT 11/M03 A3018 RMK A01 T01121031  RH  037%=      5-min Rain = 0
KAM2 140128Z 17012KT 11/M03 A3018 RMK A01 T01111031  RH  037%=      5-min Rain = 0
KAM2 140129Z 17013KT 11/M03 A3018 RMK A01 T01111030  RH  037%=      5-min Rain = 0
KAM2 140130Z 18012KT 11/M03 A3018 RMK A01 T01111030  RH  037%=      5-min Rain = 0
KAM2 140131Z 18013KT 11/M03 A3018 RMK A01 T01121030  RH  037%=      5-min Rain = 0
KAM2 140132Z 18013KT 11/M03 A3018 RMK A01 T01121029  RH  037%=      5-min Rain = 0
KAM2 140133Z 18012KT 11/M03 A3018 RMK A01 T01121028  RH  037%=      5-min Rain = 0
KAM2 140134Z 17013KT 11/M03 A3018 RMK A01 T01121028  RH  037%=      5-min Rain = 0
KAM2 140135Z 18013KT 11/M03 A3018 RMK A01 T01121027  RH  037%=      5-min Rain = 0
KAM2 140136Z 18014KT 11/M03 A3018 RMK A01 T01121027  RH  038%=      5-min Rain = 0
KAM2 140137Z 17014KT 11/M03 A3018 RMK A01 T01121026  RH  038%=      5-min Rain = 0
KAM2 140138Z 18015KT 11/M03 A3018 RMK A01 T01131026  RH  038%=      5-min Rain = 0
KAM2 140139Z 17015KT 11/M03 A3018 RMK A01 T01131026  RH  038%=      5-min Rain = 0
KAM2 140140Z 18015KT 11/M03 A3018 RMK A01 T01131026  RH  038%=      5-min Rain = 0
KAM2 140141Z 18015KT 11/M03 A3018 RMK A01 T01131025  RH  038%=      5-min Rain = 0
KAM2 140142Z 18013KT 11/M03 A3018 RMK A01 T01131025  RH  038%=      5-min Rain = 0
KAM2 140143Z 18014KT 11/M02 A3018 RMK A01 T01121024  RH  039%=      5-min Rain = 0
KAM2 140144Z 18016KT 11/M02 A3018 RMK A01 T01121024  RH  039%=      5-min Rain = 0
KAM2 140145Z 18016KT 11/M02 A3018 RMK A01 T01121024  RH  039%=      5-min Rain = 0
KAM2 140146Z 18014KT 11/M02 A3018 RMK A01 T01121023  RH  039%=      5-min Rain = 0
KAM2 140147Z 18015KT 11/M02 A3017 RMK A01 T01121023  RH  039%=      5-min Rain = 0
KAM2 140148Z 17014KT 11/M02 A3017 RMK A01 T01111023  RH  039%=      5-min Rain = 0
KAM2 140149Z 18015G20KT 11/M02 A3017 RMK A01 T01111022  RH  039%=      5-min Rain = 0
KAM2 140150Z 18014KT 11/M02 A3018 RMK A01 T01111022  RH  040%=      5-min Rain = 0
KAM2 140151Z 18014KT 11/M02 A3018 RMK A01 T01101021  RH  040%=      5-min Rain = 0
KAM2 140152Z 18014KT 11/M02 A3018 RMK A01 T01101021  RH  040%=      5-min Rain = 0
KAM2 140153Z 18014KT 11/M02 A3017 RMK A01 T01101021  RH  040%=      5-min Rain = 0
KAM2 140154Z 18014KT 11/M02 A3018 RMK A01 T01101021  RH  040%=      5-min Rain = 0
KAM2 140155Z 18015KT 11/M02 A3018 RMK A01 T01101021  RH  040%=      5-min Rain = 0
KAM2 140156Z 18014KT 11/M02 A3018 RMK A01 T01101021  RH  040%=      5-min Rain = 0
KAM2 140157Z 18013KT 11/M02 A3018 RMK A01 T01101021  RH  040%=      5-min Rain = 0
KAM2 140158Z 18015KT 11/M02 A3017 RMK A01 T01101020  RH  040%=      5-min Rain = 0
KAM2 140159Z 18015KT 11/M02 A3017 RMK A01 T01111019  RH  040%=      5-min Rain = 0
KAM2 140200Z 18014KT 11/M02 A3017 RMK A01 T01121019  RH  040%=      5-min Rain = 0
KAM2 140201Z 18013KT 11/M02 A3018 RMK A01 T01121018  RH  040%=      5-min Rain = 0
KAM2 140202Z 18013KT 11/M02 A3018 RMK A01 T01121018  RH  040%=      5-min Rain = 0
KAM2 140203Z 18015KT 11/M02 A3017 RMK A01 T01121018  RH  040%=      5-min Rain = 0
KAM2 140204Z 18015KT 11/M02 A3018 RMK A01 T01131017  RH  040%=      5-min Rain = 0
KAM2 140205Z 18014KT 11/M02 A3018 RMK A01 T01141016  RH  040%=      5-min Rain = 0
KAM2 140206Z 18015KT 11/M02 A3018 RMK A01 T01141016  RH  040%=      5-min Rain = 0
KAM2 140207Z 18015KT 12/M02 A3018 RMK A01 T01151015  RH  040%=      5-min Rain = 0
KAM2 140208Z 18013KT 12/M02 A3017 RMK A01 T01151015  RH  041%=      5-min Rain = 0
KAM2 140209Z 18014G19KT 12/M01 A3018 RMK A01 T01151014  RH  041%=      5-min Rain = 0
KAM2 140210Z 18014KT 11/M01 A3018 RMK A01 T01141014  RH  041%=      5-min Rain = 0
KAM2 140211Z 18013G18KT 11/M01 A3018 RMK A01 T01141013  RH  041%=      5-min Rain = 0
KAM2 140212Z 18013KT 11/M01 A3018 RMK A01 T01131013  RH  041%=      5-min Rain = 0
KAM2 140213Z 18015KT 11/M01 A3018 RMK A01 T01131013  RH  042%=      5-min Rain = 0
KAM2 140214Z 18015KT 11/M01 A3018 RMK A01 T01131012  RH  042%=      5-min Rain = 0
KAM2 140215Z 18014KT 11/M01 A3018 RMK A01 T01131012  RH  042%=      5-min Rain = 0
KAM2 140216Z 18013KT 11/M01 A3018 RMK A01 T01131012  RH  042%=      5-min Rain = 0
KAM2 140217Z 18014KT 11/M01 A3017 RMK A01 T01131012  RH  042%=      5-min Rain = 0
KAM2 140218Z 18013G18KT 11/M01 A3018 RMK A01 T01121012  RH  042%=      5-min Rain = 0
KAM2 140219Z 18014KT 11/M01 A3018 RMK A01 T01121012  RH  042%=      5-min Rain = 0
KAM2 140220Z 18013KT 11/M01 A3018 RMK A01 T01121011  RH  042%=      5-min Rain = 0
KAM2 140221Z 18014KT 11/M01 A3017 RMK A01 T01111012  RH  043%=      5-min Rain = 0
KAM2 140222Z 18014KT 11/M01 A3017 RMK A01 T01111011  RH  043%=      5-min Rain = 0
KAM2 140223Z 18012KT 11/M01 A3017 RMK A01 T01101011  RH  043%=      5-min Rain = 0
KAM2 140224Z 17013KT 11/M01 A3017 RMK A01 T01101012  RH  043%=      5-min Rain = 0
KAM2 140225Z 18012KT 11/M01 A3018 RMK A01 T01091011  RH  043%=      5-min Rain = 0
KAM2 140226Z 18013KT 11/M01 A3018 RMK A01 T01091011  RH  043%=      5-min Rain = 0
KAM2 140227Z 18012KT 11/M01 A3018 RMK A01 T01081011  RH  044%=      5-min Rain = 0
KAM2 140228Z 17012KT 11/M01 A3018 RMK A01 T01081011  RH  044%=      5-min Rain = 0
KAM2 140229Z 17012KT 11/M01 A3018 RMK A01 T01071011  RH  044%=      5-min Rain = 0
KAM2 140230Z 17012KT 11/M01 A3018 RMK A01 T01071011  RH  044%=      5-min Rain = 0
KAM2 140231Z 17012KT 11/M01 A3018 RMK A01 T01071010  RH  044%=      5-min Rain = 0
KAM2 140232Z 17013KT 11/M01 A3018 RMK A01 T01071010  RH  044%=      5-min Rain = 0
KAM2 140233Z 17013KT 11/M01 A3018 RMK A01 T01071010  RH  044%=      5-min Rain = 0
KAM2 140234Z 17013KT 11/M01 A3018 RMK A01 T01071009  RH  044%=      5-min Rain = 0
KAM2 140235Z 17014KT 11/M01 A3018 RMK A01 T01071009  RH  045%=      5-min Rain = 0
KAM2 140236Z 17013G18KT 11/M01 A3018 RMK A01 T01081008  RH  045%=      5-min Rain = 0
KAM2 140237Z 18015KT 11/M01 A3018 RMK A01 T01081007  RH  045%=      5-min Rain = 0
KAM2 140238Z 18014KT 11/M01 A3018 RMK A01 T01091007  RH  045%=      5-min Rain = 0
KAM2 140239Z 17013KT 11/M01 A3018 RMK A01 T01091007  RH  045%=      5-min Rain = 0
KAM2 140240Z 17013KT 11/M01 A3018 RMK A01 T01081007  RH  045%=      5-min Rain = 0
KAM2 140241Z 17014KT 11/M01 A3018 RMK A01 T01071007  RH  045%=      5-min Rain = 0
KAM2 140242Z 17014KT 11/M01 A3018 RMK A01 T01071007  RH  045%=      5-min Rain = 0
KAM2 140243Z 17016KT 11/M01 A3017 RMK A01 T01071006  RH  045%=      5-min Rain = 0
KAM2 140244Z 17014KT 11/M01 A3018 RMK A01 T01081005  RH  045%=      5-min Rain = 0
KAM2 140245Z 18015KT 11/M01 A3018 RMK A01 T01081006  RH  045%=      5-min Rain = 0
KAM2 140246Z 17015KT 11/M01 A3018 RMK A01 T01081005  RH  045%=      5-min Rain = 0
KAM2 140247Z 17014KT 11/M01 A3018 RMK A01 T01071006  RH  045%=      5-min Rain = 0
KAM2 140248Z 18016KT 11/M01 A3018 RMK A01 T01071006  RH  046%=      5-min Rain = 0
KAM2 140249Z 17014KT 11/M01 A3018 RMK A01 T01071005  RH  046%=      5-min Rain = 0
KAM2 140250Z 17014KT 11/M01 A3018 RMK A01 T01071005  RH  046%=      5-min Rain = 0
KAM2 140251Z 17014KT 11/M01 A3018 RMK A01 T01061006  RH  046%=      5-min Rain = 0
KAM2 140252Z 17013KT 11/M01 A3017 RMK A01 T01061006  RH  046%=      5-min Rain = 0
KAM2 140253Z 17014KT 11/M01 A3017 RMK A01 T01051006  RH  046%=      5-min Rain = 0
KAM2 140254Z 17016G21KT 11/M01 A3017 RMK A01 T01051006  RH  046%=      5-min Rain = 0
KAM2 140255Z 18016KT 11/M01 A3018 RMK A01 T01051006  RH  046%=      5-min Rain = 0
KAM2 140256Z 17015KT 11/M01 A3018 RMK A01 T01051006  RH  046%=      5-min Rain = 0
KAM2 140257Z 17014KT 10/M01 A3018 RMK A01 T01041006  RH  046%=      5-min Rain = 0
KAM2 140258Z 17016KT 10/M01 A3018 RMK A01 T01041006  RH  047%=      5-min Rain = 0
KAM2 140259Z 17015KT 10/M01 A3018 RMK A01 T01031005  RH  047%=      5-min Rain = 0
KAM2 140300Z 17015KT 10/M01 A3018 RMK A01 T01031005  RH  047%=      5-min Rain = 0
KAM2 140301Z 18015KT 10/M01 A3018 RMK A01 T01031005  RH  047%=      5-min Rain = 0
KAM2 140302Z 17015KT 10/M01 A3018 RMK A01 T01031005  RH  047%=      5-min Rain = 0
KAM2 140303Z 17014KT 10/M01 A3018 RMK A01 T01031005  RH  047%=      5-min Rain = 0
KAM2 140304Z 17015KT 10/M01 A3018 RMK A01 T01021005  RH  048%=      5-min Rain = 0
KAM2 140305Z 17015KT 10/M00 A3018 RMK A01 T01021004  RH  048%=      5-min Rain = 0
KAM2 140306Z 17013KT 10/M00 A3018 RMK A01 T01021004  RH  048%=      5-min Rain = 0
KAM2 140307Z 17015KT 10/M00 A3018 RMK A01 T01011004  RH  048%=      5-min Rain = 0
KAM2 140308Z 17016KT 10/M00 A3018 RMK A01 T01011004  RH  048%=      5-min Rain = 0
KAM2 140309Z 17015KT 10/M00 A3018 RMK A01 T01011004  RH  048%=      5-min Rain = 0
KAM2 140310Z 17014KT 10/M00 A3018 RMK A01 T01001004  RH  048%=      5-min Rain = 0
KAM2 140311Z 17016KT 10/M00 A3018 RMK A01 T01001004  RH  049%=      5-min Rain = 0
KAM2 140312Z 17016KT 10/M00 A3018 RMK A01 T00991004  RH  049%=      5-min Rain = 0
KAM2 140313Z 18016G21KT 10/M00 A3018 RMK A01 T00991003  RH  049%=      5-min Rain = 0
KAM2 140314Z 17016KT 10/M00 A3018 RMK A01 T00991003  RH  049%=      5-min Rain = 0
KAM2 140315Z 18015KT 10/M00 A3018 RMK A01 T00991003  RH  049%=      5-min Rain = 0
KAM2 140316Z 18017KT 10/M00 A3018 RMK A01 T00991003  RH  049%=      5-min Rain = 0
KAM2 140317Z 17016KT 10/M00 A3018 RMK A01 T00991002  RH  049%=      5-min Rain = 0
KAM2 140318Z 17015KT 10/M00 A3018 RMK A01 T00991002  RH  049%=      5-min Rain = 0
KAM2 140319Z 18015G20KT 10/M00 A3018 RMK A01 T00981002  RH  050%=      5-min Rain = 0
KAM2 140320Z 18016KT 10/M00 A3018 RMK A01 T00981002  RH  050%=      5-min Rain = 0
KAM2 140321Z 17016KT 10/M00 A3018 RMK A01 T00971002  RH  050%=      5-min Rain = 0
KAM2 140322Z 18016KT 10/M00 A3018 RMK A01 T00971001  RH  050%=      5-min Rain = 0
KAM2 140323Z 17016G21KT 10/M00 A3018 RMK A01 T00971001  RH  050%=      5-min Rain = 0
KAM2 140324Z 17017KT 10/00 A3018 RMK A01 T009700-0  RH  051%=      5-min Rain = 0
KAM2 140325Z 18016KT 10/00 A3018 RMK A01 T009700-0  RH  051%=      5-min Rain = 0
KAM2 140326Z 18017KT 10/00 A3018 RMK A01 T009700-0  RH  051%=      5-min Rain = 0
KAM2 140327Z 18016G21KT 10/00 A3018 RMK A01 T00980001  RH  051%=      5-min Rain = 0
KAM2 140328Z 18017KT 10/00 A3017 RMK A01 T00970000  RH  051%=      5-min Rain = 0
KAM2 140329Z 18018KT 10/00 A3018 RMK A01 T00970001  RH  051%=      5-min Rain = 0
KAM2 140330Z 18017KT 10/00 A3018 RMK A01 T00980001  RH  051%=      5-min Rain = 0
KAM2 140331Z 18015KT 10/00 A3018 RMK A01 T00980001  RH  051%=      5-min Rain = 0
KAM2 140332Z 18017KT 10/00 A3018 RMK A01 T00980001  RH  051%=      5-min Rain = 0
KAM2 140333Z 18018KT 10/00 A3018 RMK A01 T00980002  RH  051%=      5-min Rain = 0
KAM2 140334Z 18018KT 10/00 A3018 RMK A01 T00980002  RH  051%=      5-min Rain = 0
KAM2 140335Z 17017KT 10/00 A3018 RMK A01 T00990002  RH  051%=      5-min Rain = 0
KAM2 140336Z 17017KT 10/00 A3018 RMK A01 T00990002  RH  051%=      5-min Rain = 0
KAM2 140337Z 17016KT 10/00 A3018 RMK A01 T00990003  RH  051%=      5-min Rain = 0
KAM2 140338Z 18016KT 10/00 A3018 RMK A01 T00980002  RH  051%=      5-min Rain = 0
KAM2 140339Z 17016KT 10/00 A3018 RMK A01 T00980003  RH  051%=      5-min Rain = 0
KAM2 140340Z 17016G21KT 10/00 A3018 RMK A01 T00980003  RH  051%=      5-min Rain = 0
KAM2 140341Z 17015KT 10/00 A3018 RMK A01 T00980003  RH  051%=      5-min Rain = 0
KAM2 140342Z 18015KT 10/00 A3018 RMK A01 T00980003  RH  052%=      5-min Rain = 0
KAM2 140343Z 18016KT 10/00 A3018 RMK A01 T00980003  RH  052%=      5-min Rain = 0
KAM2 140344Z 17016KT 10/00 A3018 RMK A01 T00980003  RH  052%=      5-min Rain = 0
KAM2 140345Z 17015KT 10/00 A3018 RMK A01 T00980003  RH  052%=      5-min Rain = 0
KAM2 140346Z 17013KT 10/00 A3018 RMK A01 T00980003  RH  052%=      5-min Rain = 0
KAM2 140347Z 17014KT 10/00 A3018 RMK A01 T00970003  RH  052%=      5-min Rain = 0
KAM2 140348Z 18013KT 10/00 A3018 RMK A01 T00970003  RH  052%=      5-min Rain = 0
KAM2 140349Z 18015KT 10/00 A3018 RMK A01 T00970004  RH  052%=      5-min Rain = 0
KAM2 140350Z 18014KT 10/00 A3018 RMK A01 T00960004  RH  052%=      5-min Rain = 0
KAM2 140351Z 18015KT 10/00 A3018 RMK A01 T00970004  RH  052%=      5-min Rain = 0
KAM2 140352Z 18015KT 10/01 A3018 RMK A01 T00980005  RH  052%=      5-min Rain = 0
KAM2 140353Z 18014KT 10/01 A3018 RMK A01 T00980005  RH  052%=      5-min Rain = 0
KAM2 140354Z 18013KT 10/01 A3018 RMK A01 T00980005  RH  052%=      5-min Rain = 0
KAM2 140355Z 18014KT 10/01 A3018 RMK A01 T00980005  RH  052%=      5-min Rain = 0
KAM2 140356Z 18014KT 10/01 A3018 RMK A01 T00980006  RH  052%=      5-min Rain = 0
KAM2 140357Z 18016G22KT 10/01 A3018 RMK A01 T01000007  RH  052%=      5-min Rain = 0
KAM2 140358Z 18016KT 10/01 A3018 RMK A01 T01020008  RH  052%=      5-min Rain = 0
KAM2 140359Z 18016KT 10/01 A3018 RMK A01 T01030008  RH  052%=      5-min Rain = 0
KAM2 140400Z 18015G20KT 10/01 A3018 RMK A01 T01030008  RH  051%=      5-min Rain = 0
KAM2 140401Z 18015G22KT 10/01 A3018 RMK A01 T01030008  RH  052%=      5-min Rain = 0
KAM2 140402Z 18016KT 10/01 A3018 RMK A01 T01040009  RH  052%=      5-min Rain = 0
KAM2 140403Z 18016KT 11/01 A3018 RMK A01 T01050010  RH  052%=      5-min Rain = 0
KAM2 140404Z 18015G20KT 11/01 A3018 RMK A01 T01060010  RH  051%=      5-min Rain = 0
KAM2 140405Z 18014KT 11/01 A3018 RMK A01 T01060010  RH  051%=      5-min Rain = 0
KAM2 140406Z 18015KT 11/01 A3018 RMK A01 T01060010  RH  051%=      5-min Rain = 0
KAM2 140407Z 18015G20KT 11/01 A3018 RMK A01 T01060010  RH  051%=      5-min Rain = 0
KAM2 140408Z 18016KT 11/01 A3018 RMK A01 T01070011  RH  051%=      5-min Rain = 0
KAM2 140409Z 18018KT 11/01 A3018 RMK A01 T01080011  RH  051%=      5-min Rain = 0
KAM2 140410Z 18017KT 11/01 A3018 RMK A01 T01080012  RH  051%=      5-min Rain = 0
KAM2 140411Z 18018KT 11/01 A3018 RMK A01 T01090012  RH  051%=      5-min Rain = 0
KAM2 140412Z 18016G22KT 11/01 A3018 RMK A01 T01090012  RH  051%=      5-min Rain = 0
KAM2 140413Z 18017KT 11/01 A3018 RMK A01 T01090013  RH  051%=      5-min Rain = 0
KAM2 140414Z 18015KT 11/01 A3018 RMK A01 T01090013  RH  051%=      5-min Rain = 0
KAM2 140415Z 19017KT 11/01 A3018 RMK A01 T01090013  RH  052%=      5-min Rain = 0
KAM2 140416Z 19016G21KT 11/01 A3018 RMK A01 T01080014  RH  052%=      5-min Rain = 0
KAM2 140417Z 19019G24KT 11/01 A3018 RMK A01 T01090014  RH  052%=      5-min Rain = 0
KAM2 140418Z 18016KT 11/02 A3018 RMK A01 T01090015  RH  052%=      5-min Rain = 0
KAM2 140419Z 18019G26KT 11/02 A3018 RMK A01 T01090015  RH  052%=      5-min Rain = 0
KAM2 140420Z 18016KT 11/02 A3018 RMK A01 T01090016  RH  052%=      5-min Rain = 0
KAM2 140421Z 19016KT 11/02 A3018 RMK A01 T01100016  RH  052%=      5-min Rain = 0
KAM2 140422Z 18014KT 11/02 A3018 RMK A01 T01100016  RH  052%=      5-min Rain = 0
KAM2 140423Z 18013KT 11/02 A3018 RMK A01 T01090016  RH  053%=      5-min Rain = 0
KAM2 140424Z 18015KT 11/02 A3018 RMK A01 T01090016  RH  053%=      5-min Rain = 0
KAM2 140425Z 18015KT 11/02 A3018 RMK A01 T01080017  RH  053%=      5-min Rain = 0
KAM2 140426Z 18016G21KT 11/02 A3018 RMK A01 T01090017  RH  053%=      5-min Rain = 0
KAM2 140427Z 19016KT 11/02 A3018 RMK A01 T01090018  RH  053%=      5-min Rain = 0
KAM2 140428Z 18015KT 11/02 A3018 RMK A01 T01090018  RH  053%=      5-min Rain = 0
KAM2 140429Z 18014KT 11/02 A3018 RMK A01 T01090018  RH  053%=      5-min Rain = 0
KAM2 140430Z 18015KT 11/02 A3018 RMK A01 T01090018  RH  053%=      5-min Rain = 0
KAM2 140431Z 18014G19KT 11/02 A3018 RMK A01 T01090018  RH  054%=      5-min Rain = 0
KAM2 140432Z 18014G21KT 11/02 A3018 RMK A01 T01090019  RH  054%=      5-min Rain = 0
KAM2 140433Z 19020G25KT 11/02 A3018 RMK A01 T01090019  RH  054%=      5-min Rain = 0
KAM2 140434Z 18017G22KT 11/02 A3018 RMK A01 T01100020  RH  054%=      5-min Rain = 0
KAM2 140435Z 18017G22KT 11/02 A3018 RMK A01 T01100019  RH  053%=      5-min Rain = 0
KAM2 140436Z 18018G23KT 11/02 A3018 RMK A01 T01110019  RH  053%=      5-min Rain = 0
KAM2 140437Z 18017G22KT 11/02 A3018 RMK A01 T01110020  RH  053%=      5-min Rain = 0
KAM2 140438Z 18016G23KT 11/02 A3018 RMK A01 T01100019  RH  053%=      5-min Rain = 0
KAM2 140439Z 18016G21KT 11/02 A3018 RMK A01 T01100019  RH  054%=      5-min Rain = 0
KAM2 140440Z 19017G22KT 11/02 A3018 RMK A01 T01100020  RH  054%=      5-min Rain = 0
KAM2 140441Z 18019KT 11/02 A3018 RMK A01 T01100020  RH  054%=      5-min Rain = 0
KAM2 140442Z 18017KT 11/02 A3018 RMK A01 T01100020  RH  054%=      5-min Rain = 0
KAM2 140443Z 19016KT 11/02 A3018 RMK A01 T01100020  RH  054%=      5-min Rain = 0
KAM2 140444Z 18018G23KT 11/02 A3018 RMK A01 T01100020  RH  054%=      5-min Rain = 0
KAM2 140445Z 18016G22KT 11/02 A3018 RMK A01 T01100021  RH  054%=      5-min Rain = 0
KAM2 140446Z 18015KT 11/02 A3018 RMK A01 T01100020  RH  054%=      5-min Rain = 0
KAM2 140447Z 18017KT 11/02 A3018 RMK A01 T01100021  RH  054%=      5-min Rain = 0
KAM2 140448Z 18017KT 11/02 A3018 RMK A01 T01090021  RH  054%=      5-min Rain = 0
KAM2 140449Z 18019G24KT 11/02 A3018 RMK A01 T01090021  RH  054%=      5-min Rain = 0
KAM2 140450Z 18017KT 11/02 A3018 RMK A01 T01090021  RH  054%=      5-min Rain = 0
KAM2 140451Z 18015KT 11/02 A3018 RMK A01 T01090021  RH  054%=      5-min Rain = 0
KAM2 140452Z 18017G22KT 11/02 A3018 RMK A01 T01080021  RH  055%=      5-min Rain = 0
KAM2 140453Z 18015G20KT 11/02 A3018 RMK A01 T01090022  RH  055%=      5-min Rain = 0
KAM2 140454Z 18019G24KT 11/02 A3018 RMK A01 T01090022  RH  055%=      5-min Rain = 0
KAM2 140455Z 18019G24KT 11/02 A3018 RMK A01 T01090022  RH  055%=      5-min Rain = 0
KAM2 140456Z 18017G22KT 11/02 A3018 RMK A01 T01100022  RH  055%=      5-min Rain = 0
KAM2 140457Z 18017G23KT 11/02 A3018 RMK A01 T01100022  RH  055%=      5-min Rain = 0
KAM2 140458Z 18016KT 11/02 A3018 RMK A01 T01100022  RH  055%=      5-min Rain = 0
KAM2 140459Z 18016G23KT 11/02 A3018 RMK A01 T01090022  RH  055%=      5-min Rain = 0
KAM2 140500Z 18016G22KT 11/02 A3018 RMK A01 T01090022  RH  055%=      5-min Rain = 0
KAM2 140501Z 18016KT 11/02 A3018 RMK A01 T01090022  RH  055%=      5-min Rain = 0
KAM2 140502Z 18017G23KT 11/02 A3018 RMK A01 T01080022  RH  055%=      5-min Rain = 0
KAM2 140503Z 18014KT 11/02 A3018 RMK A01 T01080022  RH  055%=      5-min Rain = 0
KAM2 140504Z 18016G21KT 11/02 A3018 RMK A01 T01080022  RH  055%=      5-min Rain = 0
KAM2 140505Z 18015KT 11/02 A3018 RMK A01 T01070022  RH  056%=      5-min Rain = 0
KAM2 140506Z 18016KT 11/02 A3018 RMK A01 T01070021  RH  056%=      5-min Rain = 0
KAM2 140507Z 18017KT 11/02 A3018 RMK A01 T01060022  RH  056%=      5-min Rain = 0
KAM2 140508Z 18015KT 11/02 A3018 RMK A01 T01070022  RH  056%=      5-min Rain = 0
KAM2 140509Z 18014G19KT 11/02 A3018 RMK A01 T01060021  RH  056%=      5-min Rain = 0
KAM2 140510Z 18015KT 11/02 A3018 RMK A01 T01060021  RH  056%=      5-min Rain = 0
KAM2 140511Z 18014KT 11/02 A3018 RMK A01 T01060021  RH  056%=      5-min Rain = 0
KAM2 140512Z 18015KT 11/02 A3018 RMK A01 T01060021  RH  056%=      5-min Rain = 0
KAM2 140513Z 18016KT 11/02 A3018 RMK A01 T01050021  RH  056%=      5-min Rain = 0
KAM2 140514Z 18014G19KT 11/02 A3018 RMK A01 T01050022  RH  056%=      5-min Rain = 0
KAM2 140515Z 18014KT 11/02 A3018 RMK A01 T01050021  RH  056%=      5-min Rain = 0
KAM2 140516Z 18016KT 10/02 A3018 RMK A01 T01040021  RH  056%=      5-min Rain = 0
KAM2 140517Z 18016KT 10/02 A3018 RMK A01 T01040021  RH  056%=      5-min Rain = 0
KAM2 140518Z 18015KT 11/02 A3018 RMK A01 T01050022  RH  056%=      5-min Rain = 0
KAM2 140519Z 18016G21KT 11/02 A3018 RMK A01 T01050021  RH  056%=      5-min Rain = 0
KAM2 140520Z 18015G20KT 11/02 A3018 RMK A01 T01050021  RH  056%=      5-min Rain = 0
KAM2 140521Z 18015KT 10/02 A3018 RMK A01 T01040021  RH  056%=      5-min Rain = 0
KAM2 140522Z 18013KT 10/02 A3018 RMK A01 T01040021  RH  056%=      5-min Rain = 0
KAM2 140523Z 18016KT 10/02 A3018 RMK A01 T01040021  RH  056%=      5-min Rain = 0
KAM2 140524Z 18014KT 10/02 A3018 RMK A01 T01040021  RH  057%=      5-min Rain = 0
KAM2 140525Z 18014KT 10/02 A3018 RMK A01 T01040021  RH  057%=      5-min Rain = 0
KAM2 140526Z 18014G19KT 10/02 A3018 RMK A01 T01030021  RH  057%=      5-min Rain = 0
KAM2 140527Z 18012KT 10/02 A3018 RMK A01 T01030021  RH  057%=      5-min Rain = 0
KAM2 140528Z 18014KT 10/02 A3018 RMK A01 T01040021  RH  057%=      5-min Rain = 0
KAM2 140529Z 18015KT 10/02 A3018 RMK A01 T01040022  RH  057%=      5-min Rain = 0
KAM2 140530Z 18015KT 11/02 A3018 RMK A01 T01050022  RH  056%=      5-min Rain = 0
KAM2 140531Z 18014G19KT 11/02 A3018 RMK A01 T01060022  RH  056%=      5-min Rain = 0
KAM2 140532Z 18013KT 11/02 A3018 RMK A01 T01070022  RH  056%=      5-min Rain = 0
KAM2 140533Z 18014G19KT 11/02 A3018 RMK A01 T01060022  RH  056%=      5-min Rain = 0
KAM2 140534Z 18014KT 11/02 A3018 RMK A01 T01070022  RH  056%=      5-min Rain = 0
KAM2 140535Z 18014KT 11/02 A3018 RMK A01 T01070022  RH  056%=      5-min Rain = 0
KAM2 140536Z 18014G19KT 11/02 A3018 RMK A01 T01070022  RH  056%=      5-min Rain = 0
KAM2 140537Z 18014KT 11/02 A3017 RMK A01 T01070023  RH  056%=      5-min Rain = 0
KAM2 140538Z 18014KT 11/02 A3017 RMK A01 T01070022  RH  056%=      5-min Rain = 0
KAM2 140539Z 18015KT 11/02 A3017 RMK A01 T01080022  RH  056%=      5-min Rain = 0
KAM2 140540Z 18014KT 11/02 A3017 RMK A01 T01070022  RH  056%=      5-min Rain = 0
KAM2 140541Z 18013KT 11/02 A3017 RMK A01 T01080022  RH  056%=      5-min Rain = 0
KAM2 140542Z 19012KT 11/02 A3017 RMK A01 T01080022  RH  056%=      5-min Rain = 0
KAM2 140543Z 18013KT 11/02 A3017 RMK A01 T01070022  RH  056%=      5-min Rain = 0
KAM2 140544Z 18013KT 11/02 A3017 RMK A01 T01070022  RH  056%=      5-min Rain = 0
KAM2 140545Z 18013KT 11/02 A3017 RMK A01 T01080022  RH  056%=      5-min Rain = 0
KAM2 140546Z 19014KT 11/02 A3017 RMK A01 T01070022  RH  056%=      5-min Rain = 0
KAM2 140547Z 18013KT 11/02 A3017 RMK A01 T01070022  RH  056%=      5-min Rain = 0
KAM2 140548Z 19013G18KT 11/02 A3017 RMK A01 T01080022  RH  056%=      5-min Rain = 0
KAM2 140549Z 19016KT 11/02 A3017 RMK A01 T01070022  RH  056%=      5-min Rain = 0
KAM2 140550Z 18015KT 11/02 A3017 RMK A01 T01070022  RH  055%=      5-min Rain = 0
KAM2 140551Z 19016G21KT 11/02 A3017 RMK A01 T01080022  RH  055%=      5-min Rain = 0
KAM2 140552Z 19014KT 11/02 A3017 RMK A01 T01080022  RH  055%=      5-min Rain = 0
KAM2 140553Z 19015KT 11/02 A3017 RMK A01 T01090022  RH  055%=      5-min Rain = 0
KAM2 140554Z 19018KT 11/02 A3017 RMK A01 T01090022  RH  055%=      5-min Rain = 0
KAM2 140555Z 19016KT 11/02 A3017 RMK A01 T01090022  RH  055%=      5-min Rain = 0
KAM2 140556Z 18014G19KT 11/02 A3017 RMK A01 T01090022  RH  055%=      5-min Rain = 0
KAM2 140557Z 18015KT 11/02 A3017 RMK A01 T01090021  RH  055%=      5-min Rain = 0
KAM2 140558Z 19015G21KT 11/02 A3017 RMK A01 T01090021  RH  055%=      5-min Rain = 0
KAM2 140559Z 19018KT 11/02 A3017 RMK A01 T01090021  RH  055%=      5-min Rain = 0

Page generated in 0.0735 seconds.